<?xml version="1.0" encoding="UTF-8" standalone="no" ?>
<gpx xmlns="http://www.topografix.com/GPX/1/1" xmlns:xsi="http://www.w3.org/2001/XMLSchema-instance" xsi:schemaLocation="http://www.topografix.com/GPX/1/1 http://www.topografix.com/GPX/1/1/gpx.xsd" version="1.1" creator="VisuGPX - https://www.visugpx.com">
  <metadata>
    <name>PAPIGNIES ENEO</name>
    <desc><![CDATA[CIRCUIT DE PAPIGNIES GUIDE Christian le 11 juillet 2016]]></desc>
  </metadata>
  <trk>
    <name><![CDATA[PAPIGNIES11-juillet 2016]]></name>
    <trkseg>
      <trkpt lat="50.68486" lon="3.818">
        <ele>62.62</ele>
        <time>2016-07-11T14:36:03Z</time>
      </trkpt>
      <trkpt lat="50.68486" lon="3.81799">
        <ele>62.62</ele>
        <time>2016-07-11T14:36:04Z</time>
      </trkpt>
      <trkpt lat="50.68484" lon="3.81799">
        <ele>48.68</ele>
        <time>2016-07-11T14:36:08Z</time>
      </trkpt>
      <trkpt lat="50.68484" lon="3.81798">
        <ele>48.68</ele>
        <time>2016-07-11T14:36:09Z</time>
      </trkpt>
      <trkpt lat="50.68485" lon="3.81799">
        <ele>49.65</ele>
        <time>2016-07-11T14:36:23Z</time>
      </trkpt>
      <trkpt lat="50.68486" lon="3.81803">
        <ele>49.16</ele>
        <time>2016-07-11T14:36:42Z</time>
      </trkpt>
      <trkpt lat="50.68484" lon="3.81804">
        <ele>48.2</ele>
        <time>2016-07-11T14:36:52Z</time>
      </trkpt>
      <trkpt lat="50.68484" lon="3.81798">
        <ele>47.72</ele>
        <time>2016-07-11T14:37:04Z</time>
      </trkpt>
      <trkpt lat="50.68482" lon="3.81796">
        <ele>47.72</ele>
        <time>2016-07-11T14:37:25Z</time>
      </trkpt>
      <trkpt lat="50.68486" lon="3.81798">
        <ele>47.24</ele>
        <time>2016-07-11T14:37:46Z</time>
      </trkpt>
      <trkpt lat="50.68484" lon="3.81805">
        <ele>47.24</ele>
        <time>2016-07-11T14:37:56Z</time>
      </trkpt>
      <trkpt lat="50.68486" lon="3.81808">
        <ele>48.2</ele>
        <time>2016-07-11T14:38:13Z</time>
      </trkpt>
      <trkpt lat="50.68486" lon="3.81806">
        <ele>46.76</ele>
        <time>2016-07-11T14:38:25Z</time>
      </trkpt>
      <trkpt lat="50.68485" lon="3.8181">
        <ele>46.76</ele>
        <time>2016-07-11T14:38:37Z</time>
      </trkpt>
      <trkpt lat="50.68483" lon="3.81818">
        <ele>46.76</ele>
        <time>2016-07-11T14:38:49Z</time>
      </trkpt>
      <trkpt lat="50.68479" lon="3.81827">
        <ele>46.28</ele>
        <time>2016-07-11T14:39:02Z</time>
      </trkpt>
      <trkpt lat="50.68474" lon="3.81836">
        <ele>46.28</ele>
        <time>2016-07-11T14:39:15Z</time>
      </trkpt>
      <trkpt lat="50.68472" lon="3.81839">
        <ele>46.28</ele>
        <time>2016-07-11T14:39:19Z</time>
      </trkpt>
      <trkpt lat="50.68471" lon="3.81842">
        <ele>46.28</ele>
        <time>2016-07-11T14:39:22Z</time>
      </trkpt>
      <trkpt lat="50.68463" lon="3.81858">
        <ele>46.76</ele>
        <time>2016-07-11T14:39:35Z</time>
      </trkpt>
      <trkpt lat="50.68458" lon="3.81863">
        <ele>45.8</ele>
        <time>2016-07-11T14:39:47Z</time>
      </trkpt>
      <trkpt lat="50.68461" lon="3.81854">
        <ele>45.32</ele>
        <time>2016-07-11T14:40:10Z</time>
      </trkpt>
      <trkpt lat="50.68459" lon="3.81865">
        <ele>45.32</ele>
        <time>2016-07-11T14:40:27Z</time>
      </trkpt>
      <trkpt lat="50.68463" lon="3.81863">
        <ele>44.84</ele>
        <time>2016-07-11T14:40:42Z</time>
      </trkpt>
      <trkpt lat="50.68462" lon="3.81861">
        <ele>44.84</ele>
        <time>2016-07-11T14:41:08Z</time>
      </trkpt>
      <trkpt lat="50.68464" lon="3.81859">
        <ele>44.36</ele>
        <time>2016-07-11T14:41:36Z</time>
      </trkpt>
      <trkpt lat="50.68458" lon="3.81858">
        <ele>45.32</ele>
        <time>2016-07-11T14:42:02Z</time>
      </trkpt>
      <trkpt lat="50.68459" lon="3.81864">
        <ele>44.84</ele>
        <time>2016-07-11T14:42:31Z</time>
      </trkpt>
      <trkpt lat="50.68459" lon="3.8186">
        <ele>44.84</ele>
        <time>2016-07-11T14:42:51Z</time>
      </trkpt>
      <trkpt lat="50.68459" lon="3.81858">
        <ele>44.36</ele>
        <time>2016-07-11T14:43:18Z</time>
      </trkpt>
      <trkpt lat="50.68459" lon="3.8186">
        <ele>44.36</ele>
        <time>2016-07-11T14:43:43Z</time>
      </trkpt>
      <trkpt lat="50.68461" lon="3.81862">
        <ele>43.88</ele>
        <time>2016-07-11T14:44:06Z</time>
      </trkpt>
      <trkpt lat="50.6846" lon="3.81866">
        <ele>43.88</ele>
        <time>2016-07-11T14:44:27Z</time>
      </trkpt>
      <trkpt lat="50.68459" lon="3.81864">
        <ele>43.4</ele>
        <time>2016-07-11T14:44:53Z</time>
      </trkpt>
      <trkpt lat="50.68458" lon="3.81862">
        <ele>43.4</ele>
        <time>2016-07-11T14:45:19Z</time>
      </trkpt>
      <trkpt lat="50.68458" lon="3.81863">
        <ele>42.92</ele>
        <time>2016-07-11T14:45:42Z</time>
      </trkpt>
      <trkpt lat="50.68456" lon="3.81865">
        <ele>42.92</ele>
        <time>2016-07-11T14:46:03Z</time>
      </trkpt>
      <trkpt lat="50.6846" lon="3.81864">
        <ele>42.44</ele>
        <time>2016-07-11T14:46:22Z</time>
      </trkpt>
      <trkpt lat="50.68459" lon="3.81864">
        <ele>42.44</ele>
        <time>2016-07-11T14:46:48Z</time>
      </trkpt>
      <trkpt lat="50.68458" lon="3.81861">
        <ele>41.95</ele>
        <time>2016-07-11T14:47:18Z</time>
      </trkpt>
      <trkpt lat="50.68454" lon="3.81861">
        <ele>40.51</ele>
        <time>2016-07-11T14:47:45Z</time>
      </trkpt>
      <trkpt lat="50.6846" lon="3.81863">
        <ele>40.51</ele>
        <time>2016-07-11T14:48:12Z</time>
      </trkpt>
      <trkpt lat="50.68459" lon="3.81863">
        <ele>40.03</ele>
        <time>2016-07-11T14:48:28Z</time>
      </trkpt>
      <trkpt lat="50.68458" lon="3.81862">
        <ele>40.03</ele>
        <time>2016-07-11T14:48:45Z</time>
      </trkpt>
      <trkpt lat="50.68456" lon="3.81862">
        <ele>40.03</ele>
        <time>2016-07-11T14:49:10Z</time>
      </trkpt>
      <trkpt lat="50.68457" lon="3.81862">
        <ele>39.55</ele>
        <time>2016-07-11T14:49:32Z</time>
      </trkpt>
      <trkpt lat="50.68458" lon="3.81865">
        <ele>39.55</ele>
        <time>2016-07-11T14:49:54Z</time>
      </trkpt>
      <trkpt lat="50.68458" lon="3.81864">
        <ele>39.07</ele>
        <time>2016-07-11T14:50:10Z</time>
      </trkpt>
      <trkpt lat="50.68457" lon="3.81863">
        <ele>39.07</ele>
        <time>2016-07-11T14:50:33Z</time>
      </trkpt>
      <trkpt lat="50.68457" lon="3.8186">
        <ele>38.59</ele>
        <time>2016-07-11T14:50:56Z</time>
      </trkpt>
      <trkpt lat="50.68458" lon="3.81863">
        <ele>38.59</ele>
        <time>2016-07-11T14:51:22Z</time>
      </trkpt>
      <trkpt lat="50.68457" lon="3.81862">
        <ele>38.11</ele>
        <time>2016-07-11T14:51:42Z</time>
      </trkpt>
      <trkpt lat="50.68456" lon="3.81862">
        <ele>38.11</ele>
        <time>2016-07-11T14:52:06Z</time>
      </trkpt>
      <trkpt lat="50.68457" lon="3.81861">
        <ele>37.63</ele>
        <time>2016-07-11T14:52:32Z</time>
      </trkpt>
      <trkpt lat="50.68456" lon="3.81858">
        <ele>37.63</ele>
        <time>2016-07-11T14:52:55Z</time>
      </trkpt>
      <trkpt lat="50.68459" lon="3.81859">
        <ele>37.63</ele>
        <time>2016-07-11T14:53:15Z</time>
      </trkpt>
      <trkpt lat="50.68459" lon="3.81861">
        <ele>37.15</ele>
        <time>2016-07-11T14:53:32Z</time>
      </trkpt>
      <trkpt lat="50.68456" lon="3.8186">
        <ele>37.15</ele>
        <time>2016-07-11T14:53:53Z</time>
      </trkpt>
      <trkpt lat="50.68457" lon="3.81861">
        <ele>37.15</ele>
        <time>2016-07-11T14:54:19Z</time>
      </trkpt>
      <trkpt lat="50.68456" lon="3.81861">
        <ele>36.67</ele>
        <time>2016-07-11T14:54:46Z</time>
      </trkpt>
      <trkpt lat="50.68454" lon="3.81865">
        <ele>36.67</ele>
        <time>2016-07-11T14:55:09Z</time>
      </trkpt>
      <trkpt lat="50.68456" lon="3.8186">
        <ele>37.63</ele>
        <time>2016-07-11T14:55:35Z</time>
      </trkpt>
      <trkpt lat="50.6846" lon="3.81861">
        <ele>37.15</ele>
        <time>2016-07-11T14:55:58Z</time>
      </trkpt>
      <trkpt lat="50.68458" lon="3.81864">
        <ele>37.15</ele>
        <time>2016-07-11T14:56:19Z</time>
      </trkpt>
      <trkpt lat="50.68457" lon="3.81866">
        <ele>37.15</ele>
        <time>2016-07-11T14:56:44Z</time>
      </trkpt>
      <trkpt lat="50.68456" lon="3.81863">
        <ele>36.67</ele>
        <time>2016-07-11T14:57:07Z</time>
      </trkpt>
      <trkpt lat="50.68456" lon="3.81864">
        <ele>36.67</ele>
        <time>2016-07-11T14:57:32Z</time>
      </trkpt>
      <trkpt lat="50.68458" lon="3.81866">
        <ele>36.67</ele>
        <time>2016-07-11T14:57:53Z</time>
      </trkpt>
      <trkpt lat="50.68457" lon="3.81869">
        <ele>36.67</ele>
        <time>2016-07-11T14:58:17Z</time>
      </trkpt>
      <trkpt lat="50.68457" lon="3.81869">
        <ele>36.19</ele>
        <time>2016-07-11T14:58:45Z</time>
      </trkpt>
      <trkpt lat="50.68459" lon="3.81866">
        <ele>36.19</ele>
        <time>2016-07-11T14:59:06Z</time>
      </trkpt>
      <trkpt lat="50.68457" lon="3.81865">
        <ele>36.19</ele>
        <time>2016-07-11T14:59:36Z</time>
      </trkpt>
      <trkpt lat="50.68458" lon="3.81865">
        <ele>35.71</ele>
        <time>2016-07-11T15:00:01Z</time>
      </trkpt>
      <trkpt lat="50.68459" lon="3.8186">
        <ele>36.19</ele>
        <time>2016-07-11T15:00:21Z</time>
      </trkpt>
      <trkpt lat="50.68458" lon="3.81863">
        <ele>34.74</ele>
        <time>2016-07-11T15:00:46Z</time>
      </trkpt>
      <trkpt lat="50.6846" lon="3.81865">
        <ele>34.74</ele>
        <time>2016-07-11T15:01:15Z</time>
      </trkpt>
      <trkpt lat="50.68459" lon="3.81865">
        <ele>34.74</ele>
        <time>2016-07-11T15:01:35Z</time>
      </trkpt>
      <trkpt lat="50.68461" lon="3.81865">
        <ele>34.26</ele>
        <time>2016-07-11T15:01:56Z</time>
      </trkpt>
      <trkpt lat="50.68461" lon="3.81861">
        <ele>34.26</ele>
        <time>2016-07-11T15:02:19Z</time>
      </trkpt>
      <trkpt lat="50.68461" lon="3.81862">
        <ele>34.26</ele>
        <time>2016-07-11T15:02:38Z</time>
      </trkpt>
      <trkpt lat="50.68458" lon="3.81867">
        <ele>34.26</ele>
        <time>2016-07-11T15:03:01Z</time>
      </trkpt>
      <trkpt lat="50.68447" lon="3.81885">
        <ele>33.78</ele>
        <time>2016-07-11T15:03:16Z</time>
      </trkpt>
      <trkpt lat="50.68436" lon="3.81896">
        <ele>32.82</ele>
        <time>2016-07-11T15:03:30Z</time>
      </trkpt>
      <trkpt lat="50.68429" lon="3.81915">
        <ele>31.86</ele>
        <time>2016-07-11T15:03:43Z</time>
      </trkpt>
      <trkpt lat="50.68428" lon="3.81916">
        <ele>32.34</ele>
        <time>2016-07-11T15:03:44Z</time>
      </trkpt>
      <trkpt lat="50.68421" lon="3.81929">
        <ele>31.38</ele>
        <time>2016-07-11T15:03:56Z</time>
      </trkpt>
      <trkpt lat="50.68409" lon="3.81945">
        <ele>29.94</ele>
        <time>2016-07-11T15:04:10Z</time>
      </trkpt>
      <trkpt lat="50.68395" lon="3.8197">
        <ele>29.94</ele>
        <time>2016-07-11T15:04:27Z</time>
      </trkpt>
      <trkpt lat="50.68386" lon="3.82">
        <ele>29.46</ele>
        <time>2016-07-11T15:04:43Z</time>
      </trkpt>
      <trkpt lat="50.68383" lon="3.82021">
        <ele>30.9</ele>
        <time>2016-07-11T15:04:55Z</time>
      </trkpt>
      <trkpt lat="50.68383" lon="3.82045">
        <ele>31.38</ele>
        <time>2016-07-11T15:05:08Z</time>
      </trkpt>
      <trkpt lat="50.68387" lon="3.82072">
        <ele>30.42</ele>
        <time>2016-07-11T15:05:21Z</time>
      </trkpt>
      <trkpt lat="50.68394" lon="3.82101">
        <ele>29.46</ele>
        <time>2016-07-11T15:05:35Z</time>
      </trkpt>
      <trkpt lat="50.684" lon="3.82126">
        <ele>28.98</ele>
        <time>2016-07-11T15:05:50Z</time>
      </trkpt>
      <trkpt lat="50.68402" lon="3.82138">
        <ele>28.5</ele>
        <time>2016-07-11T15:05:56Z</time>
      </trkpt>
      <trkpt lat="50.68402" lon="3.82149">
        <ele>28.02</ele>
        <time>2016-07-11T15:06:02Z</time>
      </trkpt>
      <trkpt lat="50.68401" lon="3.82165">
        <ele>28.98</ele>
        <time>2016-07-11T15:06:10Z</time>
      </trkpt>
      <trkpt lat="50.68398" lon="3.82192">
        <ele>28.98</ele>
        <time>2016-07-11T15:06:24Z</time>
      </trkpt>
      <trkpt lat="50.68398" lon="3.82217">
        <ele>28.98</ele>
        <time>2016-07-11T15:06:37Z</time>
      </trkpt>
      <trkpt lat="50.68403" lon="3.82238">
        <ele>28.98</ele>
        <time>2016-07-11T15:06:49Z</time>
      </trkpt>
      <trkpt lat="50.68416" lon="3.82268">
        <ele>28.98</ele>
        <time>2016-07-11T15:07:05Z</time>
      </trkpt>
      <trkpt lat="50.68421" lon="3.82288">
        <ele>28.98</ele>
        <time>2016-07-11T15:07:16Z</time>
      </trkpt>
      <trkpt lat="50.68418" lon="3.8231">
        <ele>28.98</ele>
        <time>2016-07-11T15:07:29Z</time>
      </trkpt>
      <trkpt lat="50.68407" lon="3.8234">
        <ele>29.46</ele>
        <time>2016-07-11T15:07:46Z</time>
      </trkpt>
      <trkpt lat="50.68395" lon="3.82368">
        <ele>28.02</ele>
        <time>2016-07-11T15:08:03Z</time>
      </trkpt>
      <trkpt lat="50.68383" lon="3.82401">
        <ele>28.02</ele>
        <time>2016-07-11T15:08:21Z</time>
      </trkpt>
      <trkpt lat="50.68374" lon="3.82431">
        <ele>28.02</ele>
        <time>2016-07-11T15:08:38Z</time>
      </trkpt>
      <trkpt lat="50.6837" lon="3.82452">
        <ele>28.02</ele>
        <time>2016-07-11T15:08:51Z</time>
      </trkpt>
      <trkpt lat="50.68366" lon="3.8247">
        <ele>29.46</ele>
        <time>2016-07-11T15:09:00Z</time>
      </trkpt>
      <trkpt lat="50.68362" lon="3.8248">
        <ele>29.46</ele>
        <time>2016-07-11T15:09:06Z</time>
      </trkpt>
      <trkpt lat="50.68358" lon="3.82484">
        <ele>29.46</ele>
        <time>2016-07-11T15:09:11Z</time>
      </trkpt>
      <trkpt lat="50.68346" lon="3.82479">
        <ele>29.46</ele>
        <time>2016-07-11T15:09:25Z</time>
      </trkpt>
      <trkpt lat="50.68341" lon="3.82479">
        <ele>28.02</ele>
        <time>2016-07-11T15:09:37Z</time>
      </trkpt>
      <trkpt lat="50.68338" lon="3.82478">
        <ele>28.02</ele>
        <time>2016-07-11T15:09:42Z</time>
      </trkpt>
      <trkpt lat="50.68322" lon="3.82476">
        <ele>28.02</ele>
        <time>2016-07-11T15:09:57Z</time>
      </trkpt>
      <trkpt lat="50.68311" lon="3.82475">
        <ele>28.02</ele>
        <time>2016-07-11T15:10:06Z</time>
      </trkpt>
      <trkpt lat="50.68307" lon="3.82475">
        <ele>28.02</ele>
        <time>2016-07-11T15:10:10Z</time>
      </trkpt>
      <trkpt lat="50.68302" lon="3.82472">
        <ele>28.02</ele>
        <time>2016-07-11T15:10:14Z</time>
      </trkpt>
      <trkpt lat="50.68286" lon="3.82466">
        <ele>28.02</ele>
        <time>2016-07-11T15:10:28Z</time>
      </trkpt>
      <trkpt lat="50.68274" lon="3.82461">
        <ele>28.98</ele>
        <time>2016-07-11T15:10:39Z</time>
      </trkpt>
      <trkpt lat="50.68257" lon="3.82453">
        <ele>28.98</ele>
        <time>2016-07-11T15:10:54Z</time>
      </trkpt>
      <trkpt lat="50.68241" lon="3.82445">
        <ele>29.46</ele>
        <time>2016-07-11T15:11:08Z</time>
      </trkpt>
      <trkpt lat="50.68227" lon="3.82438">
        <ele>29.46</ele>
        <time>2016-07-11T15:11:20Z</time>
      </trkpt>
      <trkpt lat="50.68222" lon="3.82435">
        <ele>29.46</ele>
        <time>2016-07-11T15:11:35Z</time>
      </trkpt>
      <trkpt lat="50.68221" lon="3.82432">
        <ele>29.46</ele>
        <time>2016-07-11T15:11:38Z</time>
      </trkpt>
      <trkpt lat="50.68216" lon="3.82415">
        <ele>28.98</ele>
        <time>2016-07-11T15:11:53Z</time>
      </trkpt>
      <trkpt lat="50.68213" lon="3.82401">
        <ele>28.02</ele>
        <time>2016-07-11T15:12:01Z</time>
      </trkpt>
      <trkpt lat="50.68207" lon="3.82377">
        <ele>27.05</ele>
        <time>2016-07-11T15:12:16Z</time>
      </trkpt>
      <trkpt lat="50.68203" lon="3.82361">
        <ele>27.05</ele>
        <time>2016-07-11T15:12:28Z</time>
      </trkpt>
      <trkpt lat="50.68198" lon="3.8235">
        <ele>26.57</ele>
        <time>2016-07-11T15:12:42Z</time>
      </trkpt>
      <trkpt lat="50.68188" lon="3.82336">
        <ele>28.02</ele>
        <time>2016-07-11T15:12:54Z</time>
      </trkpt>
      <trkpt lat="50.68175" lon="3.82324">
        <ele>28.02</ele>
        <time>2016-07-11T15:13:09Z</time>
      </trkpt>
      <trkpt lat="50.68172" lon="3.82319">
        <ele>27.53</ele>
        <time>2016-07-11T15:13:14Z</time>
      </trkpt>
      <trkpt lat="50.68158" lon="3.823">
        <ele>27.53</ele>
        <time>2016-07-11T15:13:30Z</time>
      </trkpt>
      <trkpt lat="50.68147" lon="3.82284">
        <ele>27.53</ele>
        <time>2016-07-11T15:13:43Z</time>
      </trkpt>
      <trkpt lat="50.68133" lon="3.82267">
        <ele>27.53</ele>
        <time>2016-07-11T15:13:58Z</time>
      </trkpt>
      <trkpt lat="50.68132" lon="3.82266">
        <ele>27.53</ele>
        <time>2016-07-11T15:13:59Z</time>
      </trkpt>
      <trkpt lat="50.68115" lon="3.8225">
        <ele>27.53</ele>
        <time>2016-07-11T15:14:14Z</time>
      </trkpt>
      <trkpt lat="50.68099" lon="3.82232">
        <ele>27.53</ele>
        <time>2016-07-11T15:14:29Z</time>
      </trkpt>
      <trkpt lat="50.68085" lon="3.82209">
        <ele>27.53</ele>
        <time>2016-07-11T15:14:45Z</time>
      </trkpt>
      <trkpt lat="50.68073" lon="3.82184">
        <ele>27.53</ele>
        <time>2016-07-11T15:15:02Z</time>
      </trkpt>
      <trkpt lat="50.68061" lon="3.8216">
        <ele>27.53</ele>
        <time>2016-07-11T15:15:18Z</time>
      </trkpt>
      <trkpt lat="50.68049" lon="3.82138">
        <ele>27.05</ele>
        <time>2016-07-11T15:15:33Z</time>
      </trkpt>
      <trkpt lat="50.6804" lon="3.82118">
        <ele>27.05</ele>
        <time>2016-07-11T15:15:48Z</time>
      </trkpt>
      <trkpt lat="50.68036" lon="3.82095">
        <ele>27.05</ele>
        <time>2016-07-11T15:16:00Z</time>
      </trkpt>
      <trkpt lat="50.68035" lon="3.82085">
        <ele>27.05</ele>
        <time>2016-07-11T15:16:06Z</time>
      </trkpt>
      <trkpt lat="50.68032" lon="3.82078">
        <ele>27.05</ele>
        <time>2016-07-11T15:16:10Z</time>
      </trkpt>
      <trkpt lat="50.68023" lon="3.82056">
        <ele>27.05</ele>
        <time>2016-07-11T15:16:23Z</time>
      </trkpt>
      <trkpt lat="50.68013" lon="3.82037">
        <ele>27.53</ele>
        <time>2016-07-11T15:16:35Z</time>
      </trkpt>
      <trkpt lat="50.68004" lon="3.82037">
        <ele>27.53</ele>
        <time>2016-07-11T15:16:48Z</time>
      </trkpt>
      <trkpt lat="50.68003" lon="3.82037">
        <ele>27.53</ele>
        <time>2016-07-11T15:16:50Z</time>
      </trkpt>
      <trkpt lat="50.68002" lon="3.82041">
        <ele>27.53</ele>
        <time>2016-07-11T15:16:52Z</time>
      </trkpt>
      <trkpt lat="50.68" lon="3.82055">
        <ele>27.53</ele>
        <time>2016-07-11T15:16:59Z</time>
      </trkpt>
      <trkpt lat="50.67996" lon="3.8208">
        <ele>26.09</ele>
        <time>2016-07-11T15:17:13Z</time>
      </trkpt>
      <trkpt lat="50.67992" lon="3.82103">
        <ele>26.09</ele>
        <time>2016-07-11T15:17:26Z</time>
      </trkpt>
      <trkpt lat="50.67988" lon="3.82127">
        <ele>26.09</ele>
        <time>2016-07-11T15:17:40Z</time>
      </trkpt>
      <trkpt lat="50.67988" lon="3.82128">
        <ele>26.09</ele>
        <time>2016-07-11T15:17:41Z</time>
      </trkpt>
      <trkpt lat="50.67983" lon="3.82151">
        <ele>27.05</ele>
        <time>2016-07-11T15:17:54Z</time>
      </trkpt>
      <trkpt lat="50.6798" lon="3.82171">
        <ele>27.05</ele>
        <time>2016-07-11T15:18:05Z</time>
      </trkpt>
      <trkpt lat="50.67975" lon="3.8219">
        <ele>27.53</ele>
        <time>2016-07-11T15:18:16Z</time>
      </trkpt>
      <trkpt lat="50.67963" lon="3.82204">
        <ele>27.53</ele>
        <time>2016-07-11T15:18:30Z</time>
      </trkpt>
      <trkpt lat="50.67947" lon="3.82199">
        <ele>28.02</ele>
        <time>2016-07-11T15:18:44Z</time>
      </trkpt>
      <trkpt lat="50.67946" lon="3.82198">
        <ele>28.02</ele>
        <time>2016-07-11T15:18:45Z</time>
      </trkpt>
      <trkpt lat="50.67926" lon="3.82169">
        <ele>27.53</ele>
        <time>2016-07-11T15:19:07Z</time>
      </trkpt>
      <trkpt lat="50.67916" lon="3.82148">
        <ele>27.53</ele>
        <time>2016-07-11T15:19:20Z</time>
      </trkpt>
      <trkpt lat="50.6791" lon="3.82123">
        <ele>26.57</ele>
        <time>2016-07-11T15:19:34Z</time>
      </trkpt>
      <trkpt lat="50.67911" lon="3.82097">
        <ele>25.61</ele>
        <time>2016-07-11T15:19:47Z</time>
      </trkpt>
      <trkpt lat="50.67913" lon="3.82083">
        <ele>25.61</ele>
        <time>2016-07-11T15:19:54Z</time>
      </trkpt>
      <trkpt lat="50.67913" lon="3.82076">
        <ele>25.61</ele>
        <time>2016-07-11T15:19:57Z</time>
      </trkpt>
      <trkpt lat="50.67917" lon="3.82046">
        <ele>25.61</ele>
        <time>2016-07-11T15:20:13Z</time>
      </trkpt>
      <trkpt lat="50.67918" lon="3.82036">
        <ele>25.61</ele>
        <time>2016-07-11T15:20:18Z</time>
      </trkpt>
      <trkpt lat="50.67922" lon="3.82007">
        <ele>25.61</ele>
        <time>2016-07-11T15:20:34Z</time>
      </trkpt>
      <trkpt lat="50.67927" lon="3.81981">
        <ele>25.61</ele>
        <time>2016-07-11T15:20:49Z</time>
      </trkpt>
      <trkpt lat="50.67929" lon="3.81969">
        <ele>25.13</ele>
        <time>2016-07-11T15:20:56Z</time>
      </trkpt>
      <trkpt lat="50.67934" lon="3.81941">
        <ele>24.65</ele>
        <time>2016-07-11T15:21:10Z</time>
      </trkpt>
      <trkpt lat="50.67939" lon="3.81913">
        <ele>24.65</ele>
        <time>2016-07-11T15:21:25Z</time>
      </trkpt>
      <trkpt lat="50.6794" lon="3.81898">
        <ele>24.65</ele>
        <time>2016-07-11T15:21:33Z</time>
      </trkpt>
      <trkpt lat="50.67939" lon="3.81872">
        <ele>24.17</ele>
        <time>2016-07-11T15:21:47Z</time>
      </trkpt>
      <trkpt lat="50.67928" lon="3.8185">
        <ele>23.69</ele>
        <time>2016-07-11T15:22:01Z</time>
      </trkpt>
      <trkpt lat="50.67915" lon="3.81826">
        <ele>23.69</ele>
        <time>2016-07-11T15:22:17Z</time>
      </trkpt>
      <trkpt lat="50.67907" lon="3.81809">
        <ele>23.69</ele>
        <time>2016-07-11T15:22:28Z</time>
      </trkpt>
      <trkpt lat="50.67894" lon="3.81783">
        <ele>23.69</ele>
        <time>2016-07-11T15:22:46Z</time>
      </trkpt>
      <trkpt lat="50.6789" lon="3.81775">
        <ele>25.13</ele>
        <time>2016-07-11T15:22:51Z</time>
      </trkpt>
      <trkpt lat="50.67888" lon="3.81772">
        <ele>25.13</ele>
        <time>2016-07-11T15:22:53Z</time>
      </trkpt>
      <trkpt lat="50.67881" lon="3.81753">
        <ele>25.13</ele>
        <time>2016-07-11T15:23:07Z</time>
      </trkpt>
      <trkpt lat="50.67878" lon="3.81748">
        <ele>25.13</ele>
        <time>2016-07-11T15:23:21Z</time>
      </trkpt>
      <trkpt lat="50.67872" lon="3.81735">
        <ele>25.13</ele>
        <time>2016-07-11T15:23:34Z</time>
      </trkpt>
      <trkpt lat="50.67865" lon="3.81721">
        <ele>25.13</ele>
        <time>2016-07-11T15:23:46Z</time>
      </trkpt>
      <trkpt lat="50.67858" lon="3.81707">
        <ele>23.69</ele>
        <time>2016-07-11T15:24:00Z</time>
      </trkpt>
      <trkpt lat="50.6785" lon="3.81689">
        <ele>23.69</ele>
        <time>2016-07-11T15:24:14Z</time>
      </trkpt>
      <trkpt lat="50.67842" lon="3.81674">
        <ele>23.69</ele>
        <time>2016-07-11T15:24:29Z</time>
      </trkpt>
      <trkpt lat="50.67843" lon="3.81676">
        <ele>23.21</ele>
        <time>2016-07-11T15:24:43Z</time>
      </trkpt>
      <trkpt lat="50.67841" lon="3.81673">
        <ele>23.21</ele>
        <time>2016-07-11T15:25:05Z</time>
      </trkpt>
      <trkpt lat="50.67841" lon="3.81675">
        <ele>23.21</ele>
        <time>2016-07-11T15:25:28Z</time>
      </trkpt>
      <trkpt lat="50.67842" lon="3.81676">
        <ele>23.21</ele>
        <time>2016-07-11T15:25:59Z</time>
      </trkpt>
      <trkpt lat="50.67842" lon="3.81674">
        <ele>23.21</ele>
        <time>2016-07-11T15:26:31Z</time>
      </trkpt>
      <trkpt lat="50.67841" lon="3.81671">
        <ele>23.21</ele>
        <time>2016-07-11T15:26:54Z</time>
      </trkpt>
      <trkpt lat="50.6783" lon="3.81651">
        <ele>23.21</ele>
        <time>2016-07-11T15:27:09Z</time>
      </trkpt>
      <trkpt lat="50.6782" lon="3.81634">
        <ele>23.21</ele>
        <time>2016-07-11T15:27:22Z</time>
      </trkpt>
      <trkpt lat="50.67806" lon="3.81609">
        <ele>23.21</ele>
        <time>2016-07-11T15:27:39Z</time>
      </trkpt>
      <trkpt lat="50.678" lon="3.81599">
        <ele>24.17</ele>
        <time>2016-07-11T15:27:46Z</time>
      </trkpt>
      <trkpt lat="50.67795" lon="3.81588">
        <ele>24.65</ele>
        <time>2016-07-11T15:27:54Z</time>
      </trkpt>
      <trkpt lat="50.67794" lon="3.81586">
        <ele>23.69</ele>
        <time>2016-07-11T15:27:57Z</time>
      </trkpt>
      <trkpt lat="50.67791" lon="3.81581">
        <ele>23.21</ele>
        <time>2016-07-11T15:28:01Z</time>
      </trkpt>
      <trkpt lat="50.67789" lon="3.81577">
        <ele>23.21</ele>
        <time>2016-07-11T15:28:04Z</time>
      </trkpt>
      <trkpt lat="50.67779" lon="3.81559">
        <ele>23.21</ele>
        <time>2016-07-11T15:28:19Z</time>
      </trkpt>
      <trkpt lat="50.67772" lon="3.81544">
        <ele>23.21</ele>
        <time>2016-07-11T15:28:32Z</time>
      </trkpt>
      <trkpt lat="50.67763" lon="3.81525">
        <ele>23.21</ele>
        <time>2016-07-11T15:28:47Z</time>
      </trkpt>
      <trkpt lat="50.67759" lon="3.8152">
        <ele>23.21</ele>
        <time>2016-07-11T15:28:52Z</time>
      </trkpt>
      <trkpt lat="50.67755" lon="3.81513">
        <ele>25.13</ele>
        <time>2016-07-11T15:28:57Z</time>
      </trkpt>
      <trkpt lat="50.67754" lon="3.8151">
        <ele>23.69</ele>
        <time>2016-07-11T15:28:59Z</time>
      </trkpt>
      <trkpt lat="50.67747" lon="3.81496">
        <ele>23.69</ele>
        <time>2016-07-11T15:29:09Z</time>
      </trkpt>
      <trkpt lat="50.67742" lon="3.81489">
        <ele>23.69</ele>
        <time>2016-07-11T15:29:15Z</time>
      </trkpt>
      <trkpt lat="50.67732" lon="3.81473">
        <ele>23.69</ele>
        <time>2016-07-11T15:29:28Z</time>
      </trkpt>
      <trkpt lat="50.67723" lon="3.81456">
        <ele>23.21</ele>
        <time>2016-07-11T15:29:41Z</time>
      </trkpt>
      <trkpt lat="50.67711" lon="3.81434">
        <ele>24.17</ele>
        <time>2016-07-11T15:29:58Z</time>
      </trkpt>
      <trkpt lat="50.67698" lon="3.81412">
        <ele>24.17</ele>
        <time>2016-07-11T15:30:14Z</time>
      </trkpt>
      <trkpt lat="50.67685" lon="3.81396">
        <ele>24.17</ele>
        <time>2016-07-11T15:30:27Z</time>
      </trkpt>
      <trkpt lat="50.6767" lon="3.81377">
        <ele>24.17</ele>
        <time>2016-07-11T15:30:42Z</time>
      </trkpt>
      <trkpt lat="50.67655" lon="3.81362">
        <ele>24.17</ele>
        <time>2016-07-11T15:30:57Z</time>
      </trkpt>
      <trkpt lat="50.6764" lon="3.81347">
        <ele>24.17</ele>
        <time>2016-07-11T15:31:11Z</time>
      </trkpt>
      <trkpt lat="50.67629" lon="3.81336">
        <ele>23.21</ele>
        <time>2016-07-11T15:31:22Z</time>
      </trkpt>
      <trkpt lat="50.67619" lon="3.81324">
        <ele>24.65</ele>
        <time>2016-07-11T15:31:32Z</time>
      </trkpt>
      <trkpt lat="50.67612" lon="3.81317">
        <ele>23.21</ele>
        <time>2016-07-11T15:31:39Z</time>
      </trkpt>
      <trkpt lat="50.67597" lon="3.813">
        <ele>23.21</ele>
        <time>2016-07-11T15:31:54Z</time>
      </trkpt>
      <trkpt lat="50.6758" lon="3.81286">
        <ele>24.17</ele>
        <time>2016-07-11T15:32:09Z</time>
      </trkpt>
      <trkpt lat="50.67566" lon="3.81275">
        <ele>25.13</ele>
        <time>2016-07-11T15:32:23Z</time>
      </trkpt>
      <trkpt lat="50.67548" lon="3.81262">
        <ele>25.13</ele>
        <time>2016-07-11T15:32:38Z</time>
      </trkpt>
      <trkpt lat="50.67531" lon="3.81248">
        <ele>25.13</ele>
        <time>2016-07-11T15:32:54Z</time>
      </trkpt>
      <trkpt lat="50.67517" lon="3.81238">
        <ele>23.69</ele>
        <time>2016-07-11T15:33:07Z</time>
      </trkpt>
      <trkpt lat="50.675" lon="3.81223">
        <ele>22.73</ele>
        <time>2016-07-11T15:33:22Z</time>
      </trkpt>
      <trkpt lat="50.67484" lon="3.8121">
        <ele>24.17</ele>
        <time>2016-07-11T15:33:37Z</time>
      </trkpt>
      <trkpt lat="50.67468" lon="3.81197">
        <ele>24.17</ele>
        <time>2016-07-11T15:33:51Z</time>
      </trkpt>
      <trkpt lat="50.67453" lon="3.81184">
        <ele>24.65</ele>
        <time>2016-07-11T15:34:04Z</time>
      </trkpt>
      <trkpt lat="50.67438" lon="3.81169">
        <ele>24.65</ele>
        <time>2016-07-11T15:34:19Z</time>
      </trkpt>
      <trkpt lat="50.67433" lon="3.81164">
        <ele>23.21</ele>
        <time>2016-07-11T15:34:24Z</time>
      </trkpt>
      <trkpt lat="50.67416" lon="3.81142">
        <ele>24.65</ele>
        <time>2016-07-11T15:34:42Z</time>
      </trkpt>
      <trkpt lat="50.67401" lon="3.81125">
        <ele>24.65</ele>
        <time>2016-07-11T15:34:57Z</time>
      </trkpt>
      <trkpt lat="50.67392" lon="3.81115">
        <ele>25.13</ele>
        <time>2016-07-11T15:35:06Z</time>
      </trkpt>
      <trkpt lat="50.67383" lon="3.81105">
        <ele>23.69</ele>
        <time>2016-07-11T15:35:15Z</time>
      </trkpt>
      <trkpt lat="50.67363" lon="3.81083">
        <ele>24.65</ele>
        <time>2016-07-11T15:35:34Z</time>
      </trkpt>
      <trkpt lat="50.67358" lon="3.81078">
        <ele>24.65</ele>
        <time>2016-07-11T15:35:41Z</time>
      </trkpt>
      <trkpt lat="50.67356" lon="3.81076">
        <ele>24.65</ele>
        <time>2016-07-11T15:35:44Z</time>
      </trkpt>
      <trkpt lat="50.67343" lon="3.81061">
        <ele>24.65</ele>
        <time>2016-07-11T15:36:00Z</time>
      </trkpt>
      <trkpt lat="50.6733" lon="3.81048">
        <ele>24.65</ele>
        <time>2016-07-11T15:36:13Z</time>
      </trkpt>
      <trkpt lat="50.67314" lon="3.8103">
        <ele>24.65</ele>
        <time>2016-07-11T15:36:29Z</time>
      </trkpt>
      <trkpt lat="50.67297" lon="3.81011">
        <ele>24.65</ele>
        <time>2016-07-11T15:36:45Z</time>
      </trkpt>
      <trkpt lat="50.67281" lon="3.80992">
        <ele>24.65</ele>
        <time>2016-07-11T15:37:01Z</time>
      </trkpt>
      <trkpt lat="50.67267" lon="3.80968">
        <ele>25.13</ele>
        <time>2016-07-11T15:37:18Z</time>
      </trkpt>
      <trkpt lat="50.67265" lon="3.80964">
        <ele>23.69</ele>
        <time>2016-07-11T15:37:21Z</time>
      </trkpt>
      <trkpt lat="50.67259" lon="3.80948">
        <ele>24.65</ele>
        <time>2016-07-11T15:37:31Z</time>
      </trkpt>
      <trkpt lat="50.67249" lon="3.80924">
        <ele>24.65</ele>
        <time>2016-07-11T15:37:46Z</time>
      </trkpt>
      <trkpt lat="50.6724" lon="3.80904">
        <ele>24.65</ele>
        <time>2016-07-11T15:38:00Z</time>
      </trkpt>
      <trkpt lat="50.67233" lon="3.80884">
        <ele>24.65</ele>
        <time>2016-07-11T15:38:13Z</time>
      </trkpt>
      <trkpt lat="50.67225" lon="3.80868">
        <ele>25.13</ele>
        <time>2016-07-11T15:38:24Z</time>
      </trkpt>
      <trkpt lat="50.67213" lon="3.80848">
        <ele>25.13</ele>
        <time>2016-07-11T15:38:39Z</time>
      </trkpt>
      <trkpt lat="50.67207" lon="3.80838">
        <ele>25.13</ele>
        <time>2016-07-11T15:38:52Z</time>
      </trkpt>
      <trkpt lat="50.67207" lon="3.80837">
        <ele>25.13</ele>
        <time>2016-07-11T15:39:13Z</time>
      </trkpt>
      <trkpt lat="50.67207" lon="3.80836">
        <ele>25.13</ele>
        <time>2016-07-11T15:39:30Z</time>
      </trkpt>
      <trkpt lat="50.67207" lon="3.80838">
        <ele>25.13</ele>
        <time>2016-07-11T15:40:03Z</time>
      </trkpt>
      <trkpt lat="50.67206" lon="3.80836">
        <ele>25.13</ele>
        <time>2016-07-11T15:40:29Z</time>
      </trkpt>
      <trkpt lat="50.67206" lon="3.80836">
        <ele>24.65</ele>
        <time>2016-07-11T15:40:56Z</time>
      </trkpt>
      <trkpt lat="50.67206" lon="3.80836">
        <ele>24.65</ele>
        <time>2016-07-11T15:41:25Z</time>
      </trkpt>
      <trkpt lat="50.67206" lon="3.80838">
        <ele>24.65</ele>
        <time>2016-07-11T15:41:54Z</time>
      </trkpt>
      <trkpt lat="50.67206" lon="3.80836">
        <ele>24.65</ele>
        <time>2016-07-11T15:42:24Z</time>
      </trkpt>
      <trkpt lat="50.67206" lon="3.80836">
        <ele>24.65</ele>
        <time>2016-07-11T15:42:46Z</time>
      </trkpt>
      <trkpt lat="50.67207" lon="3.80827">
        <ele>24.65</ele>
        <time>2016-07-11T15:43:02Z</time>
      </trkpt>
      <trkpt lat="50.67207" lon="3.80825">
        <ele>24.65</ele>
        <time>2016-07-11T15:43:03Z</time>
      </trkpt>
      <trkpt lat="50.67208" lon="3.80821">
        <ele>24.65</ele>
        <time>2016-07-11T15:43:06Z</time>
      </trkpt>
      <trkpt lat="50.67214" lon="3.80796">
        <ele>24.65</ele>
        <time>2016-07-11T15:43:21Z</time>
      </trkpt>
      <trkpt lat="50.67214" lon="3.80794">
        <ele>24.65</ele>
        <time>2016-07-11T15:43:22Z</time>
      </trkpt>
      <trkpt lat="50.67229" lon="3.80769">
        <ele>23.69</ele>
        <time>2016-07-11T15:43:40Z</time>
      </trkpt>
      <trkpt lat="50.67245" lon="3.80748">
        <ele>23.21</ele>
        <time>2016-07-11T15:43:57Z</time>
      </trkpt>
      <trkpt lat="50.67254" lon="3.80734">
        <ele>22.73</ele>
        <time>2016-07-11T15:44:08Z</time>
      </trkpt>
      <trkpt lat="50.67261" lon="3.80724">
        <ele>22.73</ele>
        <time>2016-07-11T15:44:16Z</time>
      </trkpt>
      <trkpt lat="50.67265" lon="3.80716">
        <ele>24.17</ele>
        <time>2016-07-11T15:44:21Z</time>
      </trkpt>
      <trkpt lat="50.6727" lon="3.80707">
        <ele>24.17</ele>
        <time>2016-07-11T15:44:27Z</time>
      </trkpt>
      <trkpt lat="50.67287" lon="3.80686">
        <ele>24.17</ele>
        <time>2016-07-11T15:44:44Z</time>
      </trkpt>
      <trkpt lat="50.673" lon="3.80665">
        <ele>24.65</ele>
        <time>2016-07-11T15:45:00Z</time>
      </trkpt>
      <trkpt lat="50.67315" lon="3.80646">
        <ele>25.61</ele>
        <time>2016-07-11T15:45:16Z</time>
      </trkpt>
      <trkpt lat="50.67329" lon="3.80625">
        <ele>26.09</ele>
        <time>2016-07-11T15:45:32Z</time>
      </trkpt>
      <trkpt lat="50.67331" lon="3.80622">
        <ele>25.13</ele>
        <time>2016-07-11T15:45:35Z</time>
      </trkpt>
      <trkpt lat="50.67335" lon="3.80615">
        <ele>25.13</ele>
        <time>2016-07-11T15:45:40Z</time>
      </trkpt>
      <trkpt lat="50.67347" lon="3.80598">
        <ele>24.65</ele>
        <time>2016-07-11T15:45:54Z</time>
      </trkpt>
      <trkpt lat="50.6736" lon="3.80576">
        <ele>24.17</ele>
        <time>2016-07-11T15:46:10Z</time>
      </trkpt>
      <trkpt lat="50.67371" lon="3.80557">
        <ele>23.69</ele>
        <time>2016-07-11T15:46:25Z</time>
      </trkpt>
      <trkpt lat="50.67375" lon="3.80552">
        <ele>24.65</ele>
        <time>2016-07-11T15:46:29Z</time>
      </trkpt>
      <trkpt lat="50.67388" lon="3.80529">
        <ele>24.65</ele>
        <time>2016-07-11T15:46:45Z</time>
      </trkpt>
      <trkpt lat="50.67405" lon="3.80504">
        <ele>24.65</ele>
        <time>2016-07-11T15:47:04Z</time>
      </trkpt>
      <trkpt lat="50.67419" lon="3.80483">
        <ele>25.61</ele>
        <time>2016-07-11T15:47:20Z</time>
      </trkpt>
      <trkpt lat="50.67432" lon="3.80465">
        <ele>25.61</ele>
        <time>2016-07-11T15:47:35Z</time>
      </trkpt>
      <trkpt lat="50.67445" lon="3.80451">
        <ele>25.13</ele>
        <time>2016-07-11T15:47:50Z</time>
      </trkpt>
      <trkpt lat="50.67456" lon="3.80439">
        <ele>25.61</ele>
        <time>2016-07-11T15:48:03Z</time>
      </trkpt>
      <trkpt lat="50.67471" lon="3.80424">
        <ele>25.61</ele>
        <time>2016-07-11T15:48:19Z</time>
      </trkpt>
      <trkpt lat="50.67487" lon="3.80411">
        <ele>26.09</ele>
        <time>2016-07-11T15:48:34Z</time>
      </trkpt>
      <trkpt lat="50.67512" lon="3.80399">
        <ele>27.05</ele>
        <time>2016-07-11T15:48:52Z</time>
      </trkpt>
      <trkpt lat="50.67513" lon="3.80398">
        <ele>25.61</ele>
        <time>2016-07-11T15:48:54Z</time>
      </trkpt>
      <trkpt lat="50.67521" lon="3.80392">
        <ele>25.61</ele>
        <time>2016-07-11T15:49:02Z</time>
      </trkpt>
      <trkpt lat="50.67524" lon="3.80387">
        <ele>25.61</ele>
        <time>2016-07-11T15:49:06Z</time>
      </trkpt>
      <trkpt lat="50.67527" lon="3.8038">
        <ele>26.57</ele>
        <time>2016-07-11T15:49:11Z</time>
      </trkpt>
      <trkpt lat="50.67527" lon="3.80379">
        <ele>27.53</ele>
        <time>2016-07-11T15:49:12Z</time>
      </trkpt>
      <trkpt lat="50.67531" lon="3.80372">
        <ele>26.57</ele>
        <time>2016-07-11T15:49:20Z</time>
      </trkpt>
      <trkpt lat="50.67533" lon="3.80368">
        <ele>26.57</ele>
        <time>2016-07-11T15:49:23Z</time>
      </trkpt>
      <trkpt lat="50.6754" lon="3.80352">
        <ele>28.5</ele>
        <time>2016-07-11T15:49:35Z</time>
      </trkpt>
      <trkpt lat="50.67546" lon="3.80343">
        <ele>28.98</ele>
        <time>2016-07-11T15:49:42Z</time>
      </trkpt>
      <trkpt lat="50.67548" lon="3.80336">
        <ele>28.98</ele>
        <time>2016-07-11T15:49:46Z</time>
      </trkpt>
      <trkpt lat="50.67557" lon="3.80318">
        <ele>29.46</ele>
        <time>2016-07-11T15:50:00Z</time>
      </trkpt>
      <trkpt lat="50.6756" lon="3.80313">
        <ele>29.94</ele>
        <time>2016-07-11T15:50:04Z</time>
      </trkpt>
      <trkpt lat="50.67562" lon="3.80311">
        <ele>29.94</ele>
        <time>2016-07-11T15:50:06Z</time>
      </trkpt>
      <trkpt lat="50.6757" lon="3.80292">
        <ele>30.9</ele>
        <time>2016-07-11T15:50:18Z</time>
      </trkpt>
      <trkpt lat="50.67577" lon="3.80275">
        <ele>31.86</ele>
        <time>2016-07-11T15:50:30Z</time>
      </trkpt>
      <trkpt lat="50.67584" lon="3.80261">
        <ele>33.3</ele>
        <time>2016-07-11T15:50:43Z</time>
      </trkpt>
      <trkpt lat="50.67584" lon="3.80259">
        <ele>33.3</ele>
        <time>2016-07-11T15:50:44Z</time>
      </trkpt>
      <trkpt lat="50.67589" lon="3.80249">
        <ele>34.26</ele>
        <time>2016-07-11T15:50:53Z</time>
      </trkpt>
      <trkpt lat="50.67594" lon="3.80237">
        <ele>34.26</ele>
        <time>2016-07-11T15:51:06Z</time>
      </trkpt>
      <trkpt lat="50.67604" lon="3.80242">
        <ele>35.23</ele>
        <time>2016-07-11T15:51:30Z</time>
      </trkpt>
      <trkpt lat="50.67608" lon="3.80249">
        <ele>36.19</ele>
        <time>2016-07-11T15:51:44Z</time>
      </trkpt>
      <trkpt lat="50.67613" lon="3.8024">
        <ele>36.19</ele>
        <time>2016-07-11T15:52:01Z</time>
      </trkpt>
      <trkpt lat="50.67616" lon="3.80229">
        <ele>36.19</ele>
        <time>2016-07-11T15:52:14Z</time>
      </trkpt>
      <trkpt lat="50.6762" lon="3.8023">
        <ele>36.19</ele>
        <time>2016-07-11T15:52:31Z</time>
      </trkpt>
      <trkpt lat="50.67617" lon="3.80226">
        <ele>34.74</ele>
        <time>2016-07-11T15:52:37Z</time>
      </trkpt>
      <trkpt lat="50.67614" lon="3.80217">
        <ele>34.74</ele>
        <time>2016-07-11T15:52:51Z</time>
      </trkpt>
      <trkpt lat="50.67613" lon="3.80215">
        <ele>34.26</ele>
        <time>2016-07-11T15:53:14Z</time>
      </trkpt>
      <trkpt lat="50.67612" lon="3.80215">
        <ele>34.26</ele>
        <time>2016-07-11T15:53:37Z</time>
      </trkpt>
      <trkpt lat="50.67611" lon="3.80215">
        <ele>34.26</ele>
        <time>2016-07-11T15:53:39Z</time>
      </trkpt>
      <trkpt lat="50.67608" lon="3.8021">
        <ele>34.26</ele>
        <time>2016-07-11T15:53:49Z</time>
      </trkpt>
      <trkpt lat="50.67595" lon="3.80197">
        <ele>35.71</ele>
        <time>2016-07-11T15:54:04Z</time>
      </trkpt>
      <trkpt lat="50.67587" lon="3.80183">
        <ele>36.19</ele>
        <time>2016-07-11T15:54:15Z</time>
      </trkpt>
      <trkpt lat="50.67576" lon="3.80166">
        <ele>36.19</ele>
        <time>2016-07-11T15:54:30Z</time>
      </trkpt>
      <trkpt lat="50.67562" lon="3.80147">
        <ele>34.74</ele>
        <time>2016-07-11T15:54:46Z</time>
      </trkpt>
      <trkpt lat="50.67549" lon="3.80128">
        <ele>34.74</ele>
        <time>2016-07-11T15:55:01Z</time>
      </trkpt>
      <trkpt lat="50.67532" lon="3.80107">
        <ele>34.74</ele>
        <time>2016-07-11T15:55:19Z</time>
      </trkpt>
      <trkpt lat="50.67518" lon="3.8009">
        <ele>34.26</ele>
        <time>2016-07-11T15:55:33Z</time>
      </trkpt>
      <trkpt lat="50.67504" lon="3.80076">
        <ele>34.26</ele>
        <time>2016-07-11T15:55:47Z</time>
      </trkpt>
      <trkpt lat="50.67487" lon="3.80061">
        <ele>33.78</ele>
        <time>2016-07-11T15:56:03Z</time>
      </trkpt>
      <trkpt lat="50.67472" lon="3.80045">
        <ele>33.3</ele>
        <time>2016-07-11T15:56:18Z</time>
      </trkpt>
      <trkpt lat="50.67456" lon="3.8003">
        <ele>32.82</ele>
        <time>2016-07-11T15:56:33Z</time>
      </trkpt>
      <trkpt lat="50.67437" lon="3.80012">
        <ele>32.82</ele>
        <time>2016-07-11T15:56:50Z</time>
      </trkpt>
      <trkpt lat="50.67423" lon="3.79994">
        <ele>32.82</ele>
        <time>2016-07-11T15:57:05Z</time>
      </trkpt>
      <trkpt lat="50.67408" lon="3.79977">
        <ele>31.86</ele>
        <time>2016-07-11T15:57:21Z</time>
      </trkpt>
      <trkpt lat="50.67388" lon="3.79961">
        <ele>31.86</ele>
        <time>2016-07-11T15:57:38Z</time>
      </trkpt>
      <trkpt lat="50.67377" lon="3.79953">
        <ele>31.86</ele>
        <time>2016-07-11T15:57:53Z</time>
      </trkpt>
      <trkpt lat="50.67362" lon="3.7994">
        <ele>31.86</ele>
        <time>2016-07-11T15:58:08Z</time>
      </trkpt>
      <trkpt lat="50.67352" lon="3.7993">
        <ele>31.86</ele>
        <time>2016-07-11T15:58:20Z</time>
      </trkpt>
      <trkpt lat="50.67337" lon="3.79919">
        <ele>31.38</ele>
        <time>2016-07-11T15:58:36Z</time>
      </trkpt>
      <trkpt lat="50.67331" lon="3.79912">
        <ele>31.38</ele>
        <time>2016-07-11T15:58:48Z</time>
      </trkpt>
      <trkpt lat="50.67321" lon="3.79899">
        <ele>31.38</ele>
        <time>2016-07-11T15:59:01Z</time>
      </trkpt>
      <trkpt lat="50.67317" lon="3.79896">
        <ele>31.38</ele>
        <time>2016-07-11T15:59:07Z</time>
      </trkpt>
      <trkpt lat="50.67304" lon="3.79886">
        <ele>31.38</ele>
        <time>2016-07-11T15:59:18Z</time>
      </trkpt>
      <trkpt lat="50.67283" lon="3.79866">
        <ele>30.9</ele>
        <time>2016-07-11T15:59:38Z</time>
      </trkpt>
      <trkpt lat="50.67263" lon="3.79847">
        <ele>30.9</ele>
        <time>2016-07-11T15:59:56Z</time>
      </trkpt>
      <trkpt lat="50.67245" lon="3.7983">
        <ele>30.9</ele>
        <time>2016-07-11T16:00:13Z</time>
      </trkpt>
      <trkpt lat="50.67227" lon="3.79813">
        <ele>31.38</ele>
        <time>2016-07-11T16:00:30Z</time>
      </trkpt>
      <trkpt lat="50.67223" lon="3.79809">
        <ele>29.94</ele>
        <time>2016-07-11T16:00:34Z</time>
      </trkpt>
      <trkpt lat="50.67222" lon="3.79807">
        <ele>31.38</ele>
        <time>2016-07-11T16:00:36Z</time>
      </trkpt>
      <trkpt lat="50.67202" lon="3.79788">
        <ele>31.38</ele>
        <time>2016-07-11T16:00:54Z</time>
      </trkpt>
      <trkpt lat="50.6718" lon="3.79774">
        <ele>31.38</ele>
        <time>2016-07-11T16:01:12Z</time>
      </trkpt>
      <trkpt lat="50.67158" lon="3.79769">
        <ele>31.38</ele>
        <time>2016-07-11T16:01:30Z</time>
      </trkpt>
      <trkpt lat="50.67154" lon="3.79767">
        <ele>30.42</ele>
        <time>2016-07-11T16:01:33Z</time>
      </trkpt>
      <trkpt lat="50.67133" lon="3.79764">
        <ele>29.94</ele>
        <time>2016-07-11T16:01:50Z</time>
      </trkpt>
      <trkpt lat="50.67111" lon="3.79759">
        <ele>29.94</ele>
        <time>2016-07-11T16:02:08Z</time>
      </trkpt>
      <trkpt lat="50.67091" lon="3.79754">
        <ele>29.46</ele>
        <time>2016-07-11T16:02:25Z</time>
      </trkpt>
      <trkpt lat="50.67089" lon="3.79754">
        <ele>29.46</ele>
        <time>2016-07-11T16:02:26Z</time>
      </trkpt>
      <trkpt lat="50.67073" lon="3.79754">
        <ele>28.5</ele>
        <time>2016-07-11T16:02:39Z</time>
      </trkpt>
      <trkpt lat="50.67063" lon="3.79752">
        <ele>28.5</ele>
        <time>2016-07-11T16:02:47Z</time>
      </trkpt>
      <trkpt lat="50.67057" lon="3.79752">
        <ele>28.5</ele>
        <time>2016-07-11T16:02:51Z</time>
      </trkpt>
      <trkpt lat="50.67035" lon="3.7975">
        <ele>27.53</ele>
        <time>2016-07-11T16:03:08Z</time>
      </trkpt>
      <trkpt lat="50.67031" lon="3.79749">
        <ele>27.53</ele>
        <time>2016-07-11T16:03:12Z</time>
      </trkpt>
      <trkpt lat="50.67025" lon="3.79748">
        <ele>27.53</ele>
        <time>2016-07-11T16:03:16Z</time>
      </trkpt>
      <trkpt lat="50.67005" lon="3.79746">
        <ele>27.53</ele>
        <time>2016-07-11T16:03:33Z</time>
      </trkpt>
      <trkpt lat="50.66988" lon="3.79743">
        <ele>27.53</ele>
        <time>2016-07-11T16:03:47Z</time>
      </trkpt>
      <trkpt lat="50.6697" lon="3.79741">
        <ele>27.53</ele>
        <time>2016-07-11T16:04:02Z</time>
      </trkpt>
      <trkpt lat="50.66958" lon="3.79741">
        <ele>28.02</ele>
        <time>2016-07-11T16:04:11Z</time>
      </trkpt>
      <trkpt lat="50.66938" lon="3.7974">
        <ele>26.57</ele>
        <time>2016-07-11T16:04:27Z</time>
      </trkpt>
      <trkpt lat="50.6692" lon="3.79739">
        <ele>26.57</ele>
        <time>2016-07-11T16:04:42Z</time>
      </trkpt>
      <trkpt lat="50.66906" lon="3.7974">
        <ele>26.57</ele>
        <time>2016-07-11T16:04:54Z</time>
      </trkpt>
      <trkpt lat="50.6689" lon="3.79739">
        <ele>26.57</ele>
        <time>2016-07-11T16:05:10Z</time>
      </trkpt>
      <trkpt lat="50.66883" lon="3.79741">
        <ele>26.57</ele>
        <time>2016-07-11T16:05:24Z</time>
      </trkpt>
      <trkpt lat="50.66882" lon="3.79745">
        <ele>26.57</ele>
        <time>2016-07-11T16:05:40Z</time>
      </trkpt>
      <trkpt lat="50.66881" lon="3.79741">
        <ele>26.57</ele>
        <time>2016-07-11T16:06:02Z</time>
      </trkpt>
      <trkpt lat="50.66879" lon="3.79744">
        <ele>26.57</ele>
        <time>2016-07-11T16:06:16Z</time>
      </trkpt>
      <trkpt lat="50.66877" lon="3.79745">
        <ele>26.57</ele>
        <time>2016-07-11T16:06:19Z</time>
      </trkpt>
      <trkpt lat="50.6687" lon="3.79758">
        <ele>26.57</ele>
        <time>2016-07-11T16:06:31Z</time>
      </trkpt>
      <trkpt lat="50.66855" lon="3.79766">
        <ele>26.57</ele>
        <time>2016-07-11T16:06:46Z</time>
      </trkpt>
      <trkpt lat="50.66835" lon="3.79767">
        <ele>25.61</ele>
        <time>2016-07-11T16:07:04Z</time>
      </trkpt>
      <trkpt lat="50.66814" lon="3.79774">
        <ele>25.13</ele>
        <time>2016-07-11T16:07:22Z</time>
      </trkpt>
      <trkpt lat="50.66802" lon="3.79777">
        <ele>24.65</ele>
        <time>2016-07-11T16:07:32Z</time>
      </trkpt>
      <trkpt lat="50.66793" lon="3.79779">
        <ele>24.65</ele>
        <time>2016-07-11T16:07:40Z</time>
      </trkpt>
      <trkpt lat="50.66778" lon="3.79785">
        <ele>24.65</ele>
        <time>2016-07-11T16:07:54Z</time>
      </trkpt>
      <trkpt lat="50.66759" lon="3.7979">
        <ele>24.65</ele>
        <time>2016-07-11T16:08:11Z</time>
      </trkpt>
      <trkpt lat="50.66742" lon="3.79796">
        <ele>24.65</ele>
        <time>2016-07-11T16:08:25Z</time>
      </trkpt>
      <trkpt lat="50.66727" lon="3.79802">
        <ele>24.65</ele>
        <time>2016-07-11T16:08:40Z</time>
      </trkpt>
      <trkpt lat="50.66715" lon="3.79804">
        <ele>24.65</ele>
        <time>2016-07-11T16:08:51Z</time>
      </trkpt>
      <trkpt lat="50.66702" lon="3.79803">
        <ele>24.17</ele>
        <time>2016-07-11T16:09:03Z</time>
      </trkpt>
      <trkpt lat="50.66696" lon="3.798">
        <ele>24.17</ele>
        <time>2016-07-11T16:09:08Z</time>
      </trkpt>
      <trkpt lat="50.66684" lon="3.79791">
        <ele>25.61</ele>
        <time>2016-07-11T16:09:21Z</time>
      </trkpt>
      <trkpt lat="50.66683" lon="3.7979">
        <ele>25.61</ele>
        <time>2016-07-11T16:09:22Z</time>
      </trkpt>
      <trkpt lat="50.66667" lon="3.79773">
        <ele>25.61</ele>
        <time>2016-07-11T16:09:38Z</time>
      </trkpt>
      <trkpt lat="50.66655" lon="3.79762">
        <ele>25.61</ele>
        <time>2016-07-11T16:09:50Z</time>
      </trkpt>
      <trkpt lat="50.66642" lon="3.79752">
        <ele>25.61</ele>
        <time>2016-07-11T16:10:04Z</time>
      </trkpt>
      <trkpt lat="50.66614" lon="3.79769">
        <ele>25.61</ele>
        <time>2016-07-11T16:10:19Z</time>
      </trkpt>
      <trkpt lat="50.66607" lon="3.79747">
        <ele>25.61</ele>
        <time>2016-07-11T16:10:28Z</time>
      </trkpt>
      <trkpt lat="50.66601" lon="3.79716">
        <ele>25.61</ele>
        <time>2016-07-11T16:10:44Z</time>
      </trkpt>
      <trkpt lat="50.66595" lon="3.79708">
        <ele>25.61</ele>
        <time>2016-07-11T16:10:51Z</time>
      </trkpt>
      <trkpt lat="50.66587" lon="3.79681">
        <ele>25.61</ele>
        <time>2016-07-11T16:11:07Z</time>
      </trkpt>
      <trkpt lat="50.66589" lon="3.79661">
        <ele>25.61</ele>
        <time>2016-07-11T16:11:18Z</time>
      </trkpt>
      <trkpt lat="50.6659" lon="3.79655">
        <ele>25.61</ele>
        <time>2016-07-11T16:11:22Z</time>
      </trkpt>
      <trkpt lat="50.66591" lon="3.79653">
        <ele>25.61</ele>
        <time>2016-07-11T16:11:23Z</time>
      </trkpt>
      <trkpt lat="50.66591" lon="3.79651">
        <ele>24.17</ele>
        <time>2016-07-11T16:11:24Z</time>
      </trkpt>
      <trkpt lat="50.66592" lon="3.79649">
        <ele>24.17</ele>
        <time>2016-07-11T16:11:25Z</time>
      </trkpt>
      <trkpt lat="50.66592" lon="3.79647">
        <ele>24.17</ele>
        <time>2016-07-11T16:11:26Z</time>
      </trkpt>
      <trkpt lat="50.66598" lon="3.79625">
        <ele>24.17</ele>
        <time>2016-07-11T16:11:39Z</time>
      </trkpt>
      <trkpt lat="50.66597" lon="3.79622">
        <ele>24.17</ele>
        <time>2016-07-11T16:11:40Z</time>
      </trkpt>
      <trkpt lat="50.66598" lon="3.79614">
        <ele>24.17</ele>
        <time>2016-07-11T16:11:44Z</time>
      </trkpt>
      <trkpt lat="50.66599" lon="3.79612">
        <ele>24.17</ele>
        <time>2016-07-11T16:11:45Z</time>
      </trkpt>
      <trkpt lat="50.666" lon="3.79607">
        <ele>24.17</ele>
        <time>2016-07-11T16:11:48Z</time>
      </trkpt>
      <trkpt lat="50.66602" lon="3.79592">
        <ele>24.17</ele>
        <time>2016-07-11T16:12:01Z</time>
      </trkpt>
      <trkpt lat="50.66605" lon="3.79568">
        <ele>24.17</ele>
        <time>2016-07-11T16:12:15Z</time>
      </trkpt>
      <trkpt lat="50.66605" lon="3.79552">
        <ele>24.17</ele>
        <time>2016-07-11T16:12:24Z</time>
      </trkpt>
      <trkpt lat="50.66608" lon="3.79531">
        <ele>25.61</ele>
        <time>2016-07-11T16:12:37Z</time>
      </trkpt>
      <trkpt lat="50.6661" lon="3.79526">
        <ele>25.61</ele>
        <time>2016-07-11T16:12:40Z</time>
      </trkpt>
      <trkpt lat="50.66611" lon="3.79513">
        <ele>25.13</ele>
        <time>2016-07-11T16:12:48Z</time>
      </trkpt>
      <trkpt lat="50.66612" lon="3.79511">
        <ele>25.13</ele>
        <time>2016-07-11T16:12:49Z</time>
      </trkpt>
      <trkpt lat="50.66613" lon="3.79503">
        <ele>25.13</ele>
        <time>2016-07-11T16:12:54Z</time>
      </trkpt>
      <trkpt lat="50.66614" lon="3.79486">
        <ele>25.13</ele>
        <time>2016-07-11T16:13:05Z</time>
      </trkpt>
      <trkpt lat="50.66614" lon="3.79455">
        <ele>25.61</ele>
        <time>2016-07-11T16:13:20Z</time>
      </trkpt>
      <trkpt lat="50.66617" lon="3.7943">
        <ele>26.57</ele>
        <time>2016-07-11T16:13:34Z</time>
      </trkpt>
      <trkpt lat="50.66619" lon="3.79416">
        <ele>26.57</ele>
        <time>2016-07-11T16:13:43Z</time>
      </trkpt>
      <trkpt lat="50.6662" lon="3.79414">
        <ele>26.57</ele>
        <time>2016-07-11T16:13:44Z</time>
      </trkpt>
      <trkpt lat="50.6662" lon="3.79412">
        <ele>26.57</ele>
        <time>2016-07-11T16:13:45Z</time>
      </trkpt>
      <trkpt lat="50.66629" lon="3.79388">
        <ele>27.05</ele>
        <time>2016-07-11T16:14:02Z</time>
      </trkpt>
      <trkpt lat="50.66637" lon="3.79372">
        <ele>27.53</ele>
        <time>2016-07-11T16:14:15Z</time>
      </trkpt>
      <trkpt lat="50.6664" lon="3.79367">
        <ele>27.53</ele>
        <time>2016-07-11T16:14:19Z</time>
      </trkpt>
      <trkpt lat="50.66645" lon="3.79358">
        <ele>27.53</ele>
        <time>2016-07-11T16:14:26Z</time>
      </trkpt>
      <trkpt lat="50.66658" lon="3.79339">
        <ele>28.02</ele>
        <time>2016-07-11T16:14:41Z</time>
      </trkpt>
      <trkpt lat="50.66671" lon="3.79317">
        <ele>28.5</ele>
        <time>2016-07-11T16:14:56Z</time>
      </trkpt>
      <trkpt lat="50.66683" lon="3.79299">
        <ele>28.5</ele>
        <time>2016-07-11T16:15:10Z</time>
      </trkpt>
      <trkpt lat="50.66701" lon="3.79284">
        <ele>28.98</ele>
        <time>2016-07-11T16:15:27Z</time>
      </trkpt>
      <trkpt lat="50.66718" lon="3.79272">
        <ele>29.46</ele>
        <time>2016-07-11T16:15:44Z</time>
      </trkpt>
      <trkpt lat="50.66735" lon="3.79262">
        <ele>29.46</ele>
        <time>2016-07-11T16:16:00Z</time>
      </trkpt>
      <trkpt lat="50.6675" lon="3.79251">
        <ele>30.9</ele>
        <time>2016-07-11T16:16:15Z</time>
      </trkpt>
      <trkpt lat="50.66767" lon="3.7924">
        <ele>30.9</ele>
        <time>2016-07-11T16:16:32Z</time>
      </trkpt>
      <trkpt lat="50.66782" lon="3.7923">
        <ele>31.86</ele>
        <time>2016-07-11T16:16:47Z</time>
      </trkpt>
      <trkpt lat="50.66799" lon="3.7922">
        <ele>31.86</ele>
        <time>2016-07-11T16:17:02Z</time>
      </trkpt>
      <trkpt lat="50.66816" lon="3.79207">
        <ele>32.34</ele>
        <time>2016-07-11T16:17:18Z</time>
      </trkpt>
      <trkpt lat="50.66835" lon="3.79194">
        <ele>32.82</ele>
        <time>2016-07-11T16:17:35Z</time>
      </trkpt>
      <trkpt lat="50.66835" lon="3.79193">
        <ele>32.82</ele>
        <time>2016-07-11T16:17:36Z</time>
      </trkpt>
      <trkpt lat="50.6685" lon="3.79175">
        <ele>33.78</ele>
        <time>2016-07-11T16:17:51Z</time>
      </trkpt>
      <trkpt lat="50.66864" lon="3.79154">
        <ele>33.78</ele>
        <time>2016-07-11T16:18:06Z</time>
      </trkpt>
      <trkpt lat="50.6688" lon="3.79126">
        <ele>33.78</ele>
        <time>2016-07-11T16:18:24Z</time>
      </trkpt>
      <trkpt lat="50.66896" lon="3.79099">
        <ele>33.78</ele>
        <time>2016-07-11T16:18:43Z</time>
      </trkpt>
      <trkpt lat="50.66911" lon="3.79076">
        <ele>33.78</ele>
        <time>2016-07-11T16:18:59Z</time>
      </trkpt>
      <trkpt lat="50.66928" lon="3.79047">
        <ele>33.78</ele>
        <time>2016-07-11T16:19:19Z</time>
      </trkpt>
      <trkpt lat="50.66939" lon="3.79027">
        <ele>33.78</ele>
        <time>2016-07-11T16:19:34Z</time>
      </trkpt>
      <trkpt lat="50.66939" lon="3.79026">
        <ele>33.78</ele>
        <time>2016-07-11T16:19:35Z</time>
      </trkpt>
      <trkpt lat="50.6694" lon="3.79024">
        <ele>33.78</ele>
        <time>2016-07-11T16:19:36Z</time>
      </trkpt>
      <trkpt lat="50.66941" lon="3.79023">
        <ele>33.78</ele>
        <time>2016-07-11T16:19:37Z</time>
      </trkpt>
      <trkpt lat="50.66941" lon="3.79021">
        <ele>33.78</ele>
        <time>2016-07-11T16:19:38Z</time>
      </trkpt>
      <trkpt lat="50.66952" lon="3.79004">
        <ele>34.74</ele>
        <time>2016-07-11T16:19:54Z</time>
      </trkpt>
      <trkpt lat="50.66967" lon="3.78991">
        <ele>34.26</ele>
        <time>2016-07-11T16:20:09Z</time>
      </trkpt>
      <trkpt lat="50.66981" lon="3.78979">
        <ele>34.26</ele>
        <time>2016-07-11T16:20:24Z</time>
      </trkpt>
      <trkpt lat="50.66996" lon="3.78966">
        <ele>34.74</ele>
        <time>2016-07-11T16:20:39Z</time>
      </trkpt>
      <trkpt lat="50.67014" lon="3.7895">
        <ele>34.74</ele>
        <time>2016-07-11T16:20:56Z</time>
      </trkpt>
      <trkpt lat="50.6703" lon="3.78936">
        <ele>33.78</ele>
        <time>2016-07-11T16:21:11Z</time>
      </trkpt>
      <trkpt lat="50.67048" lon="3.7892">
        <ele>34.74</ele>
        <time>2016-07-11T16:21:28Z</time>
      </trkpt>
      <trkpt lat="50.67066" lon="3.78904">
        <ele>34.74</ele>
        <time>2016-07-11T16:21:45Z</time>
      </trkpt>
      <trkpt lat="50.67075" lon="3.78895">
        <ele>35.71</ele>
        <time>2016-07-11T16:21:59Z</time>
      </trkpt>
      <trkpt lat="50.67088" lon="3.78885">
        <ele>36.19</ele>
        <time>2016-07-11T16:22:12Z</time>
      </trkpt>
      <trkpt lat="50.67106" lon="3.78871">
        <ele>36.67</ele>
        <time>2016-07-11T16:22:29Z</time>
      </trkpt>
      <trkpt lat="50.67126" lon="3.78857">
        <ele>38.11</ele>
        <time>2016-07-11T16:22:47Z</time>
      </trkpt>
      <trkpt lat="50.67143" lon="3.78846">
        <ele>39.07</ele>
        <time>2016-07-11T16:23:03Z</time>
      </trkpt>
      <trkpt lat="50.6716" lon="3.78835">
        <ele>40.51</ele>
        <time>2016-07-11T16:23:19Z</time>
      </trkpt>
      <trkpt lat="50.67178" lon="3.78823">
        <ele>41.95</ele>
        <time>2016-07-11T16:23:35Z</time>
      </trkpt>
      <trkpt lat="50.67195" lon="3.78812">
        <ele>43.4</ele>
        <time>2016-07-11T16:23:50Z</time>
      </trkpt>
      <trkpt lat="50.6721" lon="3.78802">
        <ele>44.36</ele>
        <time>2016-07-11T16:24:03Z</time>
      </trkpt>
      <trkpt lat="50.67225" lon="3.78792">
        <ele>45.8</ele>
        <time>2016-07-11T16:24:17Z</time>
      </trkpt>
      <trkpt lat="50.6724" lon="3.78782">
        <ele>46.76</ele>
        <time>2016-07-11T16:24:32Z</time>
      </trkpt>
      <trkpt lat="50.67259" lon="3.78772">
        <ele>47.72</ele>
        <time>2016-07-11T16:24:47Z</time>
      </trkpt>
      <trkpt lat="50.67277" lon="3.78759">
        <ele>48.2</ele>
        <time>2016-07-11T16:25:04Z</time>
      </trkpt>
      <trkpt lat="50.67297" lon="3.78744">
        <ele>48.68</ele>
        <time>2016-07-11T16:25:22Z</time>
      </trkpt>
      <trkpt lat="50.67314" lon="3.78728">
        <ele>48.68</ele>
        <time>2016-07-11T16:25:40Z</time>
      </trkpt>
      <trkpt lat="50.67328" lon="3.78716">
        <ele>48.68</ele>
        <time>2016-07-11T16:25:54Z</time>
      </trkpt>
      <trkpt lat="50.67329" lon="3.78716">
        <ele>47.24</ele>
        <time>2016-07-11T16:25:55Z</time>
      </trkpt>
      <trkpt lat="50.6733" lon="3.78715">
        <ele>47.24</ele>
        <time>2016-07-11T16:25:56Z</time>
      </trkpt>
      <trkpt lat="50.6734" lon="3.78704">
        <ele>46.76</ele>
        <time>2016-07-11T16:26:11Z</time>
      </trkpt>
      <trkpt lat="50.67339" lon="3.78705">
        <ele>47.24</ele>
        <time>2016-07-11T16:26:28Z</time>
      </trkpt>
      <trkpt lat="50.67338" lon="3.7871">
        <ele>47.24</ele>
        <time>2016-07-11T16:26:54Z</time>
      </trkpt>
      <trkpt lat="50.67337" lon="3.7871">
        <ele>47.72</ele>
        <time>2016-07-11T16:27:11Z</time>
      </trkpt>
      <trkpt lat="50.67336" lon="3.78703">
        <ele>47.72</ele>
        <time>2016-07-11T16:27:38Z</time>
      </trkpt>
      <trkpt lat="50.67338" lon="3.78705">
        <ele>47.72</ele>
        <time>2016-07-11T16:28:01Z</time>
      </trkpt>
      <trkpt lat="50.67348" lon="3.78702">
        <ele>47.72</ele>
        <time>2016-07-11T16:28:20Z</time>
      </trkpt>
      <trkpt lat="50.6735" lon="3.78702">
        <ele>47.72</ele>
        <time>2016-07-11T16:28:21Z</time>
      </trkpt>
      <trkpt lat="50.67351" lon="3.78702">
        <ele>47.72</ele>
        <time>2016-07-11T16:28:22Z</time>
      </trkpt>
      <trkpt lat="50.67355" lon="3.78698">
        <ele>46.28</ele>
        <time>2016-07-11T16:28:26Z</time>
      </trkpt>
      <trkpt lat="50.67357" lon="3.78696">
        <ele>46.28</ele>
        <time>2016-07-11T16:28:28Z</time>
      </trkpt>
      <trkpt lat="50.67373" lon="3.78689">
        <ele>44.84</ele>
        <time>2016-07-11T16:28:44Z</time>
      </trkpt>
      <trkpt lat="50.67392" lon="3.78683">
        <ele>43.4</ele>
        <time>2016-07-11T16:28:59Z</time>
      </trkpt>
      <trkpt lat="50.67409" lon="3.78682">
        <ele>41.95</ele>
        <time>2016-07-11T16:29:15Z</time>
      </trkpt>
      <trkpt lat="50.67424" lon="3.78687">
        <ele>40.99</ele>
        <time>2016-07-11T16:29:30Z</time>
      </trkpt>
      <trkpt lat="50.67443" lon="3.78692">
        <ele>39.55</ele>
        <time>2016-07-11T16:29:47Z</time>
      </trkpt>
      <trkpt lat="50.67458" lon="3.78696">
        <ele>39.07</ele>
        <time>2016-07-11T16:30:00Z</time>
      </trkpt>
      <trkpt lat="50.67468" lon="3.78699">
        <ele>38.11</ele>
        <time>2016-07-11T16:30:09Z</time>
      </trkpt>
      <trkpt lat="50.67487" lon="3.78705">
        <ele>37.15</ele>
        <time>2016-07-11T16:30:25Z</time>
      </trkpt>
      <trkpt lat="50.67508" lon="3.78712">
        <ele>35.71</ele>
        <time>2016-07-11T16:30:42Z</time>
      </trkpt>
      <trkpt lat="50.67527" lon="3.78719">
        <ele>34.26</ele>
        <time>2016-07-11T16:30:59Z</time>
      </trkpt>
      <trkpt lat="50.67543" lon="3.78725">
        <ele>33.78</ele>
        <time>2016-07-11T16:31:14Z</time>
      </trkpt>
      <trkpt lat="50.6756" lon="3.78731">
        <ele>32.34</ele>
        <time>2016-07-11T16:31:29Z</time>
      </trkpt>
      <trkpt lat="50.67575" lon="3.78742">
        <ele>32.34</ele>
        <time>2016-07-11T16:31:44Z</time>
      </trkpt>
      <trkpt lat="50.67578" lon="3.78748">
        <ele>31.86</ele>
        <time>2016-07-11T16:31:48Z</time>
      </trkpt>
      <trkpt lat="50.67575" lon="3.78759">
        <ele>32.82</ele>
        <time>2016-07-11T16:32:01Z</time>
      </trkpt>
      <trkpt lat="50.67574" lon="3.7876">
        <ele>32.82</ele>
        <time>2016-07-11T16:32:02Z</time>
      </trkpt>
      <trkpt lat="50.67562" lon="3.78773">
        <ele>34.26</ele>
        <time>2016-07-11T16:32:17Z</time>
      </trkpt>
      <trkpt lat="50.67548" lon="3.78787">
        <ele>35.23</ele>
        <time>2016-07-11T16:32:32Z</time>
      </trkpt>
      <trkpt lat="50.67534" lon="3.78801">
        <ele>36.19</ele>
        <time>2016-07-11T16:32:48Z</time>
      </trkpt>
      <trkpt lat="50.67529" lon="3.78807">
        <ele>36.19</ele>
        <time>2016-07-11T16:32:54Z</time>
      </trkpt>
      <trkpt lat="50.67528" lon="3.78808">
        <ele>36.19</ele>
        <time>2016-07-11T16:32:55Z</time>
      </trkpt>
      <trkpt lat="50.67515" lon="3.78821">
        <ele>38.11</ele>
        <time>2016-07-11T16:33:10Z</time>
      </trkpt>
      <trkpt lat="50.67501" lon="3.78834">
        <ele>39.55</ele>
        <time>2016-07-11T16:33:24Z</time>
      </trkpt>
      <trkpt lat="50.67489" lon="3.78849">
        <ele>40.03</ele>
        <time>2016-07-11T16:33:39Z</time>
      </trkpt>
      <trkpt lat="50.6748" lon="3.78857">
        <ele>40.51</ele>
        <time>2016-07-11T16:33:53Z</time>
      </trkpt>
      <trkpt lat="50.67473" lon="3.78866">
        <ele>40.99</ele>
        <time>2016-07-11T16:34:07Z</time>
      </trkpt>
      <trkpt lat="50.67473" lon="3.78866">
        <ele>40.99</ele>
        <time>2016-07-11T16:34:18Z</time>
      </trkpt>
      <trkpt lat="50.67472" lon="3.78866">
        <ele>40.99</ele>
        <time>2016-07-11T16:34:19Z</time>
      </trkpt>
      <trkpt lat="50.6747" lon="3.7887">
        <ele>40.99</ele>
        <time>2016-07-11T16:34:29Z</time>
      </trkpt>
      <trkpt lat="50.67461" lon="3.78879">
        <ele>41.47</ele>
        <time>2016-07-11T16:34:39Z</time>
      </trkpt>
      <trkpt lat="50.6746" lon="3.7888">
        <ele>41.47</ele>
        <time>2016-07-11T16:34:40Z</time>
      </trkpt>
      <trkpt lat="50.67457" lon="3.78884">
        <ele>40.51</ele>
        <time>2016-07-11T16:34:44Z</time>
      </trkpt>
      <trkpt lat="50.67447" lon="3.78894">
        <ele>40.51</ele>
        <time>2016-07-11T16:34:58Z</time>
      </trkpt>
      <trkpt lat="50.67443" lon="3.78897">
        <ele>41.47</ele>
        <time>2016-07-11T16:35:02Z</time>
      </trkpt>
      <trkpt lat="50.67442" lon="3.78898">
        <ele>41.47</ele>
        <time>2016-07-11T16:35:03Z</time>
      </trkpt>
      <trkpt lat="50.67441" lon="3.78899">
        <ele>41.47</ele>
        <time>2016-07-11T16:35:04Z</time>
      </trkpt>
      <trkpt lat="50.6744" lon="3.78901">
        <ele>41.47</ele>
        <time>2016-07-11T16:35:05Z</time>
      </trkpt>
      <trkpt lat="50.67439" lon="3.78902">
        <ele>41.47</ele>
        <time>2016-07-11T16:35:06Z</time>
      </trkpt>
      <trkpt lat="50.67437" lon="3.78903">
        <ele>41.47</ele>
        <time>2016-07-11T16:35:07Z</time>
      </trkpt>
      <trkpt lat="50.67436" lon="3.78905">
        <ele>41.47</ele>
        <time>2016-07-11T16:35:09Z</time>
      </trkpt>
      <trkpt lat="50.67435" lon="3.78906">
        <ele>41.47</ele>
        <time>2016-07-11T16:35:10Z</time>
      </trkpt>
      <trkpt lat="50.67433" lon="3.78908">
        <ele>41.47</ele>
        <time>2016-07-11T16:35:11Z</time>
      </trkpt>
      <trkpt lat="50.67432" lon="3.7891">
        <ele>41.47</ele>
        <time>2016-07-11T16:35:12Z</time>
      </trkpt>
      <trkpt lat="50.67431" lon="3.78911">
        <ele>41.47</ele>
        <time>2016-07-11T16:35:13Z</time>
      </trkpt>
      <trkpt lat="50.6743" lon="3.78913">
        <ele>41.47</ele>
        <time>2016-07-11T16:35:14Z</time>
      </trkpt>
      <trkpt lat="50.67423" lon="3.78938">
        <ele>39.07</ele>
        <time>2016-07-11T16:35:29Z</time>
      </trkpt>
      <trkpt lat="50.67423" lon="3.78967">
        <ele>37.15</ele>
        <time>2016-07-11T16:35:45Z</time>
      </trkpt>
      <trkpt lat="50.67424" lon="3.7897">
        <ele>37.15</ele>
        <time>2016-07-11T16:35:47Z</time>
      </trkpt>
      <trkpt lat="50.67425" lon="3.78972">
        <ele>37.15</ele>
        <time>2016-07-11T16:35:48Z</time>
      </trkpt>
      <trkpt lat="50.67425" lon="3.78974">
        <ele>36.67</ele>
        <time>2016-07-11T16:35:49Z</time>
      </trkpt>
      <trkpt lat="50.6743" lon="3.78994">
        <ele>36.19</ele>
        <time>2016-07-11T16:36:01Z</time>
      </trkpt>
      <trkpt lat="50.67431" lon="3.78996">
        <ele>36.19</ele>
        <time>2016-07-11T16:36:02Z</time>
      </trkpt>
      <trkpt lat="50.67431" lon="3.78998">
        <ele>36.19</ele>
        <time>2016-07-11T16:36:03Z</time>
      </trkpt>
      <trkpt lat="50.67437" lon="3.79013">
        <ele>35.71</ele>
        <time>2016-07-11T16:36:14Z</time>
      </trkpt>
      <trkpt lat="50.67442" lon="3.79032">
        <ele>35.71</ele>
        <time>2016-07-11T16:36:24Z</time>
      </trkpt>
      <trkpt lat="50.67448" lon="3.79046">
        <ele>35.71</ele>
        <time>2016-07-11T16:36:34Z</time>
      </trkpt>
      <trkpt lat="50.67457" lon="3.7908">
        <ele>34.74</ele>
        <time>2016-07-11T16:36:51Z</time>
      </trkpt>
      <trkpt lat="50.67465" lon="3.79103">
        <ele>34.26</ele>
        <time>2016-07-11T16:37:05Z</time>
      </trkpt>
      <trkpt lat="50.67467" lon="3.79106">
        <ele>34.74</ele>
        <time>2016-07-11T16:37:07Z</time>
      </trkpt>
      <trkpt lat="50.67468" lon="3.7911">
        <ele>34.74</ele>
        <time>2016-07-11T16:37:09Z</time>
      </trkpt>
      <trkpt lat="50.67469" lon="3.79112">
        <ele>34.74</ele>
        <time>2016-07-11T16:37:10Z</time>
      </trkpt>
      <trkpt lat="50.6747" lon="3.79113">
        <ele>34.74</ele>
        <time>2016-07-11T16:37:11Z</time>
      </trkpt>
      <trkpt lat="50.67479" lon="3.79137">
        <ele>34.74</ele>
        <time>2016-07-11T16:37:25Z</time>
      </trkpt>
      <trkpt lat="50.67487" lon="3.79157">
        <ele>34.74</ele>
        <time>2016-07-11T16:37:39Z</time>
      </trkpt>
      <trkpt lat="50.67487" lon="3.79159">
        <ele>36.19</ele>
        <time>2016-07-11T16:37:40Z</time>
      </trkpt>
      <trkpt lat="50.67488" lon="3.79161">
        <ele>36.19</ele>
        <time>2016-07-11T16:37:41Z</time>
      </trkpt>
      <trkpt lat="50.67489" lon="3.79163">
        <ele>36.19</ele>
        <time>2016-07-11T16:37:42Z</time>
      </trkpt>
      <trkpt lat="50.67489" lon="3.79165">
        <ele>36.19</ele>
        <time>2016-07-11T16:37:43Z</time>
      </trkpt>
      <trkpt lat="50.6749" lon="3.79167">
        <ele>36.19</ele>
        <time>2016-07-11T16:37:44Z</time>
      </trkpt>
      <trkpt lat="50.67496" lon="3.79185">
        <ele>36.19</ele>
        <time>2016-07-11T16:37:55Z</time>
      </trkpt>
      <trkpt lat="50.67499" lon="3.7919">
        <ele>36.67</ele>
        <time>2016-07-11T16:37:59Z</time>
      </trkpt>
      <trkpt lat="50.67499" lon="3.79192">
        <ele>36.67</ele>
        <time>2016-07-11T16:38:00Z</time>
      </trkpt>
      <trkpt lat="50.675" lon="3.79194">
        <ele>36.67</ele>
        <time>2016-07-11T16:38:01Z</time>
      </trkpt>
      <trkpt lat="50.67507" lon="3.79216">
        <ele>37.15</ele>
        <time>2016-07-11T16:38:14Z</time>
      </trkpt>
      <trkpt lat="50.67508" lon="3.79221">
        <ele>37.15</ele>
        <time>2016-07-11T16:38:16Z</time>
      </trkpt>
      <trkpt lat="50.67515" lon="3.79239">
        <ele>38.11</ele>
        <time>2016-07-11T16:38:28Z</time>
      </trkpt>
      <trkpt lat="50.67516" lon="3.79242">
        <ele>38.11</ele>
        <time>2016-07-11T16:38:30Z</time>
      </trkpt>
      <trkpt lat="50.6752" lon="3.79251">
        <ele>39.07</ele>
        <time>2016-07-11T16:38:36Z</time>
      </trkpt>
      <trkpt lat="50.67521" lon="3.79252">
        <ele>39.07</ele>
        <time>2016-07-11T16:38:37Z</time>
      </trkpt>
      <trkpt lat="50.67522" lon="3.79254">
        <ele>39.07</ele>
        <time>2016-07-11T16:38:38Z</time>
      </trkpt>
      <trkpt lat="50.67522" lon="3.79256">
        <ele>39.07</ele>
        <time>2016-07-11T16:38:39Z</time>
      </trkpt>
      <trkpt lat="50.67523" lon="3.79258">
        <ele>39.07</ele>
        <time>2016-07-11T16:38:40Z</time>
      </trkpt>
      <trkpt lat="50.67524" lon="3.7926">
        <ele>39.07</ele>
        <time>2016-07-11T16:38:41Z</time>
      </trkpt>
      <trkpt lat="50.67526" lon="3.79267">
        <ele>39.55</ele>
        <time>2016-07-11T16:38:45Z</time>
      </trkpt>
      <trkpt lat="50.67529" lon="3.79275">
        <ele>39.55</ele>
        <time>2016-07-11T16:38:50Z</time>
      </trkpt>
      <trkpt lat="50.67537" lon="3.79301">
        <ele>39.55</ele>
        <time>2016-07-11T16:39:05Z</time>
      </trkpt>
      <trkpt lat="50.67546" lon="3.79328">
        <ele>39.55</ele>
        <time>2016-07-11T16:39:21Z</time>
      </trkpt>
      <trkpt lat="50.67548" lon="3.79332">
        <ele>38.11</ele>
        <time>2016-07-11T16:39:24Z</time>
      </trkpt>
      <trkpt lat="50.67556" lon="3.79366">
        <ele>36.67</ele>
        <time>2016-07-11T16:39:42Z</time>
      </trkpt>
      <trkpt lat="50.67567" lon="3.79401">
        <ele>35.71</ele>
        <time>2016-07-11T16:39:59Z</time>
      </trkpt>
      <trkpt lat="50.67578" lon="3.79434">
        <ele>34.26</ele>
        <time>2016-07-11T16:40:16Z</time>
      </trkpt>
      <trkpt lat="50.67588" lon="3.79459">
        <ele>33.3</ele>
        <time>2016-07-11T16:40:32Z</time>
      </trkpt>
      <trkpt lat="50.67597" lon="3.79485">
        <ele>32.82</ele>
        <time>2016-07-11T16:40:45Z</time>
      </trkpt>
      <trkpt lat="50.67598" lon="3.79489">
        <ele>32.82</ele>
        <time>2016-07-11T16:40:47Z</time>
      </trkpt>
      <trkpt lat="50.67599" lon="3.7949">
        <ele>32.82</ele>
        <time>2016-07-11T16:40:48Z</time>
      </trkpt>
      <trkpt lat="50.676" lon="3.79492">
        <ele>32.82</ele>
        <time>2016-07-11T16:40:49Z</time>
      </trkpt>
      <trkpt lat="50.67601" lon="3.79494">
        <ele>32.82</ele>
        <time>2016-07-11T16:40:50Z</time>
      </trkpt>
      <trkpt lat="50.67608" lon="3.79512">
        <ele>32.34</ele>
        <time>2016-07-11T16:41:01Z</time>
      </trkpt>
      <trkpt lat="50.67609" lon="3.79514">
        <ele>32.34</ele>
        <time>2016-07-11T16:41:02Z</time>
      </trkpt>
      <trkpt lat="50.67612" lon="3.79524">
        <ele>32.34</ele>
        <time>2016-07-11T16:41:07Z</time>
      </trkpt>
      <trkpt lat="50.67614" lon="3.79529">
        <ele>32.34</ele>
        <time>2016-07-11T16:41:10Z</time>
      </trkpt>
      <trkpt lat="50.67615" lon="3.79531">
        <ele>32.34</ele>
        <time>2016-07-11T16:41:11Z</time>
      </trkpt>
      <trkpt lat="50.67626" lon="3.79554">
        <ele>32.34</ele>
        <time>2016-07-11T16:41:25Z</time>
      </trkpt>
      <trkpt lat="50.67636" lon="3.79579">
        <ele>32.34</ele>
        <time>2016-07-11T16:41:40Z</time>
      </trkpt>
      <trkpt lat="50.67648" lon="3.79608">
        <ele>32.82</ele>
        <time>2016-07-11T16:41:57Z</time>
      </trkpt>
      <trkpt lat="50.67653" lon="3.79619">
        <ele>31.38</ele>
        <time>2016-07-11T16:42:04Z</time>
      </trkpt>
      <trkpt lat="50.67654" lon="3.79621">
        <ele>31.38</ele>
        <time>2016-07-11T16:42:05Z</time>
      </trkpt>
      <trkpt lat="50.67654" lon="3.79623">
        <ele>31.38</ele>
        <time>2016-07-11T16:42:06Z</time>
      </trkpt>
      <trkpt lat="50.67657" lon="3.79632">
        <ele>31.86</ele>
        <time>2016-07-11T16:42:11Z</time>
      </trkpt>
      <trkpt lat="50.67658" lon="3.79634">
        <ele>31.86</ele>
        <time>2016-07-11T16:42:12Z</time>
      </trkpt>
      <trkpt lat="50.67672" lon="3.79661">
        <ele>31.38</ele>
        <time>2016-07-11T16:42:29Z</time>
      </trkpt>
      <trkpt lat="50.67676" lon="3.79672">
        <ele>31.86</ele>
        <time>2016-07-11T16:42:35Z</time>
      </trkpt>
      <trkpt lat="50.67676" lon="3.79674">
        <ele>31.38</ele>
        <time>2016-07-11T16:42:36Z</time>
      </trkpt>
      <trkpt lat="50.67684" lon="3.79693">
        <ele>32.34</ele>
        <time>2016-07-11T16:42:47Z</time>
      </trkpt>
      <trkpt lat="50.67691" lon="3.79714">
        <ele>31.38</ele>
        <time>2016-07-11T16:42:59Z</time>
      </trkpt>
      <trkpt lat="50.67694" lon="3.79723">
        <ele>31.38</ele>
        <time>2016-07-11T16:43:05Z</time>
      </trkpt>
      <trkpt lat="50.67695" lon="3.79725">
        <ele>31.38</ele>
        <time>2016-07-11T16:43:06Z</time>
      </trkpt>
      <trkpt lat="50.67695" lon="3.79727">
        <ele>31.38</ele>
        <time>2016-07-11T16:43:07Z</time>
      </trkpt>
      <trkpt lat="50.67696" lon="3.79729">
        <ele>31.38</ele>
        <time>2016-07-11T16:43:08Z</time>
      </trkpt>
      <trkpt lat="50.67697" lon="3.79731">
        <ele>31.38</ele>
        <time>2016-07-11T16:43:09Z</time>
      </trkpt>
      <trkpt lat="50.67702" lon="3.79747">
        <ele>31.38</ele>
        <time>2016-07-11T16:43:17Z</time>
      </trkpt>
      <trkpt lat="50.67703" lon="3.79749">
        <ele>32.82</ele>
        <time>2016-07-11T16:43:18Z</time>
      </trkpt>
      <trkpt lat="50.67704" lon="3.7975">
        <ele>32.82</ele>
        <time>2016-07-11T16:43:19Z</time>
      </trkpt>
      <trkpt lat="50.67715" lon="3.79778">
        <ele>32.82</ele>
        <time>2016-07-11T16:43:36Z</time>
      </trkpt>
      <trkpt lat="50.67726" lon="3.79805">
        <ele>34.26</ele>
        <time>2016-07-11T16:43:52Z</time>
      </trkpt>
      <trkpt lat="50.67741" lon="3.79836">
        <ele>35.23</ele>
        <time>2016-07-11T16:44:10Z</time>
      </trkpt>
      <trkpt lat="50.67741" lon="3.79838">
        <ele>35.71</ele>
        <time>2016-07-11T16:44:11Z</time>
      </trkpt>
      <trkpt lat="50.67742" lon="3.7984">
        <ele>35.71</ele>
        <time>2016-07-11T16:44:12Z</time>
      </trkpt>
      <trkpt lat="50.67743" lon="3.79842">
        <ele>35.71</ele>
        <time>2016-07-11T16:44:13Z</time>
      </trkpt>
      <trkpt lat="50.6775" lon="3.79866">
        <ele>36.67</ele>
        <time>2016-07-11T16:44:26Z</time>
      </trkpt>
      <trkpt lat="50.67753" lon="3.79876">
        <ele>36.67</ele>
        <time>2016-07-11T16:44:31Z</time>
      </trkpt>
      <trkpt lat="50.67764" lon="3.79898">
        <ele>36.67</ele>
        <time>2016-07-11T16:44:45Z</time>
      </trkpt>
      <trkpt lat="50.67776" lon="3.7992">
        <ele>36.67</ele>
        <time>2016-07-11T16:44:59Z</time>
      </trkpt>
      <trkpt lat="50.67777" lon="3.79922">
        <ele>36.67</ele>
        <time>2016-07-11T16:45:00Z</time>
      </trkpt>
      <trkpt lat="50.67782" lon="3.79936">
        <ele>37.15</ele>
        <time>2016-07-11T16:45:08Z</time>
      </trkpt>
      <trkpt lat="50.67783" lon="3.79938">
        <ele>37.15</ele>
        <time>2016-07-11T16:45:09Z</time>
      </trkpt>
      <trkpt lat="50.67793" lon="3.79956">
        <ele>37.63</ele>
        <time>2016-07-11T16:45:23Z</time>
      </trkpt>
      <trkpt lat="50.67796" lon="3.7996">
        <ele>36.19</ele>
        <time>2016-07-11T16:45:27Z</time>
      </trkpt>
      <trkpt lat="50.6781" lon="3.79979">
        <ele>35.71</ele>
        <time>2016-07-11T16:45:41Z</time>
      </trkpt>
      <trkpt lat="50.67821" lon="3.79986">
        <ele>34.74</ele>
        <time>2016-07-11T16:45:53Z</time>
      </trkpt>
      <trkpt lat="50.67832" lon="3.79993">
        <ele>34.74</ele>
        <time>2016-07-11T16:46:02Z</time>
      </trkpt>
      <trkpt lat="50.67833" lon="3.79995">
        <ele>34.74</ele>
        <time>2016-07-11T16:46:03Z</time>
      </trkpt>
      <trkpt lat="50.67849" lon="3.80008">
        <ele>34.26</ele>
        <time>2016-07-11T16:46:17Z</time>
      </trkpt>
      <trkpt lat="50.6786" lon="3.80016">
        <ele>34.26</ele>
        <time>2016-07-11T16:46:27Z</time>
      </trkpt>
      <trkpt lat="50.67862" lon="3.80016">
        <ele>34.26</ele>
        <time>2016-07-11T16:46:28Z</time>
      </trkpt>
      <trkpt lat="50.67877" lon="3.8002">
        <ele>33.78</ele>
        <time>2016-07-11T16:46:41Z</time>
      </trkpt>
      <trkpt lat="50.67879" lon="3.80021">
        <ele>33.78</ele>
        <time>2016-07-11T16:46:43Z</time>
      </trkpt>
      <trkpt lat="50.6788" lon="3.80022">
        <ele>33.78</ele>
        <time>2016-07-11T16:46:44Z</time>
      </trkpt>
      <trkpt lat="50.67881" lon="3.80022">
        <ele>33.78</ele>
        <time>2016-07-11T16:46:45Z</time>
      </trkpt>
      <trkpt lat="50.67882" lon="3.80023">
        <ele>33.78</ele>
        <time>2016-07-11T16:46:46Z</time>
      </trkpt>
      <trkpt lat="50.67884" lon="3.80024">
        <ele>33.78</ele>
        <time>2016-07-11T16:46:47Z</time>
      </trkpt>
      <trkpt lat="50.67885" lon="3.80025">
        <ele>33.78</ele>
        <time>2016-07-11T16:46:48Z</time>
      </trkpt>
      <trkpt lat="50.67886" lon="3.80025">
        <ele>33.78</ele>
        <time>2016-07-11T16:46:49Z</time>
      </trkpt>
      <trkpt lat="50.67887" lon="3.80026">
        <ele>33.78</ele>
        <time>2016-07-11T16:46:50Z</time>
      </trkpt>
      <trkpt lat="50.67904" lon="3.80034">
        <ele>33.78</ele>
        <time>2016-07-11T16:47:05Z</time>
      </trkpt>
      <trkpt lat="50.67905" lon="3.80035">
        <ele>33.78</ele>
        <time>2016-07-11T16:47:06Z</time>
      </trkpt>
      <trkpt lat="50.67907" lon="3.80036">
        <ele>33.78</ele>
        <time>2016-07-11T16:47:07Z</time>
      </trkpt>
      <trkpt lat="50.67908" lon="3.80036">
        <ele>33.78</ele>
        <time>2016-07-11T16:47:08Z</time>
      </trkpt>
      <trkpt lat="50.6791" lon="3.80037">
        <ele>33.78</ele>
        <time>2016-07-11T16:47:09Z</time>
      </trkpt>
      <trkpt lat="50.67927" lon="3.80052">
        <ele>33.3</ele>
        <time>2016-07-11T16:47:23Z</time>
      </trkpt>
      <trkpt lat="50.67936" lon="3.80058">
        <ele>33.3</ele>
        <time>2016-07-11T16:47:31Z</time>
      </trkpt>
      <trkpt lat="50.67938" lon="3.80059">
        <ele>33.3</ele>
        <time>2016-07-11T16:47:32Z</time>
      </trkpt>
      <trkpt lat="50.67939" lon="3.80061">
        <ele>33.3</ele>
        <time>2016-07-11T16:47:33Z</time>
      </trkpt>
      <trkpt lat="50.67958" lon="3.80074">
        <ele>32.34</ele>
        <time>2016-07-11T16:47:49Z</time>
      </trkpt>
      <trkpt lat="50.67959" lon="3.80076">
        <ele>32.34</ele>
        <time>2016-07-11T16:47:50Z</time>
      </trkpt>
      <trkpt lat="50.6796" lon="3.80077">
        <ele>32.34</ele>
        <time>2016-07-11T16:47:51Z</time>
      </trkpt>
      <trkpt lat="50.67961" lon="3.80077">
        <ele>32.34</ele>
        <time>2016-07-11T16:47:52Z</time>
      </trkpt>
      <trkpt lat="50.67962" lon="3.80078">
        <ele>31.86</ele>
        <time>2016-07-11T16:47:53Z</time>
      </trkpt>
      <trkpt lat="50.67963" lon="3.80079">
        <ele>31.86</ele>
        <time>2016-07-11T16:47:54Z</time>
      </trkpt>
      <trkpt lat="50.67978" lon="3.80091">
        <ele>31.38</ele>
        <time>2016-07-11T16:48:08Z</time>
      </trkpt>
      <trkpt lat="50.67987" lon="3.80097">
        <ele>31.38</ele>
        <time>2016-07-11T16:48:16Z</time>
      </trkpt>
      <trkpt lat="50.67988" lon="3.80098">
        <ele>30.9</ele>
        <time>2016-07-11T16:48:17Z</time>
      </trkpt>
      <trkpt lat="50.67989" lon="3.80099">
        <ele>30.9</ele>
        <time>2016-07-11T16:48:18Z</time>
      </trkpt>
      <trkpt lat="50.67991" lon="3.80102">
        <ele>30.9</ele>
        <time>2016-07-11T16:48:20Z</time>
      </trkpt>
      <trkpt lat="50.67992" lon="3.80103">
        <ele>30.9</ele>
        <time>2016-07-11T16:48:21Z</time>
      </trkpt>
      <trkpt lat="50.67994" lon="3.80104">
        <ele>30.9</ele>
        <time>2016-07-11T16:48:22Z</time>
      </trkpt>
      <trkpt lat="50.68009" lon="3.80123">
        <ele>29.94</ele>
        <time>2016-07-11T16:48:39Z</time>
      </trkpt>
      <trkpt lat="50.6802" lon="3.80133">
        <ele>30.42</ele>
        <time>2016-07-11T16:48:49Z</time>
      </trkpt>
      <trkpt lat="50.68021" lon="3.80134">
        <ele>30.42</ele>
        <time>2016-07-11T16:48:50Z</time>
      </trkpt>
      <trkpt lat="50.68022" lon="3.80135">
        <ele>30.42</ele>
        <time>2016-07-11T16:48:51Z</time>
      </trkpt>
      <trkpt lat="50.68024" lon="3.80136">
        <ele>30.42</ele>
        <time>2016-07-11T16:48:52Z</time>
      </trkpt>
      <trkpt lat="50.68025" lon="3.80137">
        <ele>30.42</ele>
        <time>2016-07-11T16:48:53Z</time>
      </trkpt>
      <trkpt lat="50.68028" lon="3.80141">
        <ele>30.42</ele>
        <time>2016-07-11T16:48:57Z</time>
      </trkpt>
      <trkpt lat="50.68037" lon="3.80145">
        <ele>29.94</ele>
        <time>2016-07-11T16:49:04Z</time>
      </trkpt>
      <trkpt lat="50.68038" lon="3.80146">
        <ele>29.46</ele>
        <time>2016-07-11T16:49:05Z</time>
      </trkpt>
      <trkpt lat="50.68039" lon="3.80147">
        <ele>29.46</ele>
        <time>2016-07-11T16:49:06Z</time>
      </trkpt>
      <trkpt lat="50.6804" lon="3.80149">
        <ele>29.46</ele>
        <time>2016-07-11T16:49:07Z</time>
      </trkpt>
      <trkpt lat="50.68042" lon="3.8015">
        <ele>29.46</ele>
        <time>2016-07-11T16:49:08Z</time>
      </trkpt>
      <trkpt lat="50.68057" lon="3.80167">
        <ele>28.5</ele>
        <time>2016-07-11T16:49:23Z</time>
      </trkpt>
      <trkpt lat="50.68068" lon="3.80184">
        <ele>28.02</ele>
        <time>2016-07-11T16:49:37Z</time>
      </trkpt>
      <trkpt lat="50.68075" lon="3.80204">
        <ele>27.05</ele>
        <time>2016-07-11T16:49:50Z</time>
      </trkpt>
      <trkpt lat="50.68075" lon="3.80206">
        <ele>27.05</ele>
        <time>2016-07-11T16:49:51Z</time>
      </trkpt>
      <trkpt lat="50.68081" lon="3.80231">
        <ele>26.09</ele>
        <time>2016-07-11T16:50:05Z</time>
      </trkpt>
      <trkpt lat="50.68081" lon="3.80233">
        <ele>26.09</ele>
        <time>2016-07-11T16:50:06Z</time>
      </trkpt>
      <trkpt lat="50.68083" lon="3.80246">
        <ele>25.61</ele>
        <time>2016-07-11T16:50:18Z</time>
      </trkpt>
      <trkpt lat="50.68083" lon="3.80248">
        <ele>25.61</ele>
        <time>2016-07-11T16:50:37Z</time>
      </trkpt>
      <trkpt lat="50.68085" lon="3.80253">
        <ele>25.13</ele>
        <time>2016-07-11T16:50:53Z</time>
      </trkpt>
      <trkpt lat="50.68084" lon="3.80253">
        <ele>24.65</ele>
        <time>2016-07-11T16:51:15Z</time>
      </trkpt>
      <trkpt lat="50.68083" lon="3.80254">
        <ele>24.65</ele>
        <time>2016-07-11T16:51:42Z</time>
      </trkpt>
      <trkpt lat="50.68085" lon="3.80262">
        <ele>24.65</ele>
        <time>2016-07-11T16:52:06Z</time>
      </trkpt>
      <trkpt lat="50.68088" lon="3.80268">
        <ele>24.65</ele>
        <time>2016-07-11T16:52:11Z</time>
      </trkpt>
      <trkpt lat="50.68089" lon="3.8027">
        <ele>24.65</ele>
        <time>2016-07-11T16:52:12Z</time>
      </trkpt>
      <trkpt lat="50.68094" lon="3.80286">
        <ele>24.65</ele>
        <time>2016-07-11T16:52:24Z</time>
      </trkpt>
      <trkpt lat="50.68096" lon="3.8029">
        <ele>24.65</ele>
        <time>2016-07-11T16:52:26Z</time>
      </trkpt>
      <trkpt lat="50.68097" lon="3.80291">
        <ele>24.65</ele>
        <time>2016-07-11T16:52:27Z</time>
      </trkpt>
      <trkpt lat="50.68105" lon="3.80305">
        <ele>24.17</ele>
        <time>2016-07-11T16:52:38Z</time>
      </trkpt>
      <trkpt lat="50.68113" lon="3.8032">
        <ele>24.17</ele>
        <time>2016-07-11T16:52:49Z</time>
      </trkpt>
      <trkpt lat="50.68126" lon="3.80338">
        <ele>24.17</ele>
        <time>2016-07-11T16:53:04Z</time>
      </trkpt>
      <trkpt lat="50.68143" lon="3.80345">
        <ele>24.17</ele>
        <time>2016-07-11T16:53:18Z</time>
      </trkpt>
      <trkpt lat="50.68154" lon="3.80352">
        <ele>25.13</ele>
        <time>2016-07-11T16:53:28Z</time>
      </trkpt>
      <trkpt lat="50.68166" lon="3.80358">
        <ele>25.13</ele>
        <time>2016-07-11T16:53:38Z</time>
      </trkpt>
      <trkpt lat="50.68182" lon="3.80363">
        <ele>25.13</ele>
        <time>2016-07-11T16:53:51Z</time>
      </trkpt>
      <trkpt lat="50.68198" lon="3.80367">
        <ele>25.61</ele>
        <time>2016-07-11T16:54:06Z</time>
      </trkpt>
      <trkpt lat="50.68199" lon="3.80367">
        <ele>25.61</ele>
        <time>2016-07-11T16:54:08Z</time>
      </trkpt>
      <trkpt lat="50.68201" lon="3.80367">
        <ele>25.61</ele>
        <time>2016-07-11T16:54:09Z</time>
      </trkpt>
      <trkpt lat="50.6822" lon="3.80372">
        <ele>25.61</ele>
        <time>2016-07-11T16:54:23Z</time>
      </trkpt>
      <trkpt lat="50.68235" lon="3.80385">
        <ele>26.57</ele>
        <time>2016-07-11T16:54:37Z</time>
      </trkpt>
      <trkpt lat="50.68237" lon="3.80386">
        <ele>27.05</ele>
        <time>2016-07-11T16:54:40Z</time>
      </trkpt>
      <trkpt lat="50.68241" lon="3.80387">
        <ele>27.05</ele>
        <time>2016-07-11T16:54:43Z</time>
      </trkpt>
      <trkpt lat="50.68242" lon="3.80386">
        <ele>27.05</ele>
        <time>2016-07-11T16:54:44Z</time>
      </trkpt>
      <trkpt lat="50.68256" lon="3.80391">
        <ele>27.53</ele>
        <time>2016-07-11T16:54:57Z</time>
      </trkpt>
      <trkpt lat="50.68265" lon="3.80393">
        <ele>27.53</ele>
        <time>2016-07-11T16:55:06Z</time>
      </trkpt>
      <trkpt lat="50.68277" lon="3.80421">
        <ele>28.5</ele>
        <time>2016-07-11T16:55:22Z</time>
      </trkpt>
      <trkpt lat="50.68283" lon="3.80431">
        <ele>28.5</ele>
        <time>2016-07-11T16:55:28Z</time>
      </trkpt>
      <trkpt lat="50.68283" lon="3.80433">
        <ele>28.5</ele>
        <time>2016-07-11T16:55:29Z</time>
      </trkpt>
      <trkpt lat="50.68284" lon="3.80435">
        <ele>28.5</ele>
        <time>2016-07-11T16:55:30Z</time>
      </trkpt>
      <trkpt lat="50.68287" lon="3.8044">
        <ele>28.98</ele>
        <time>2016-07-11T16:55:34Z</time>
      </trkpt>
      <trkpt lat="50.68288" lon="3.80441">
        <ele>28.98</ele>
        <time>2016-07-11T16:55:35Z</time>
      </trkpt>
      <trkpt lat="50.683" lon="3.80463">
        <ele>28.98</ele>
        <time>2016-07-11T16:55:50Z</time>
      </trkpt>
      <trkpt lat="50.68313" lon="3.80485">
        <ele>28.98</ele>
        <time>2016-07-11T16:56:05Z</time>
      </trkpt>
      <trkpt lat="50.68326" lon="3.8051">
        <ele>29.46</ele>
        <time>2016-07-11T16:56:21Z</time>
      </trkpt>
      <trkpt lat="50.68341" lon="3.80531">
        <ele>29.46</ele>
        <time>2016-07-11T16:56:36Z</time>
      </trkpt>
      <trkpt lat="50.68357" lon="3.80554">
        <ele>28.5</ele>
        <time>2016-07-11T16:56:53Z</time>
      </trkpt>
      <trkpt lat="50.68362" lon="3.80561">
        <ele>28.02</ele>
        <time>2016-07-11T16:57:00Z</time>
      </trkpt>
      <trkpt lat="50.68378" lon="3.80582">
        <ele>27.05</ele>
        <time>2016-07-11T16:57:16Z</time>
      </trkpt>
      <trkpt lat="50.68387" lon="3.806">
        <ele>26.57</ele>
        <time>2016-07-11T16:57:28Z</time>
      </trkpt>
      <trkpt lat="50.68402" lon="3.80624">
        <ele>25.61</ele>
        <time>2016-07-11T16:57:43Z</time>
      </trkpt>
      <trkpt lat="50.68414" lon="3.80646">
        <ele>25.61</ele>
        <time>2016-07-11T16:57:57Z</time>
      </trkpt>
      <trkpt lat="50.68425" lon="3.80665">
        <ele>25.13</ele>
        <time>2016-07-11T16:58:11Z</time>
      </trkpt>
      <trkpt lat="50.68429" lon="3.80672">
        <ele>25.13</ele>
        <time>2016-07-11T16:58:16Z</time>
      </trkpt>
      <trkpt lat="50.68434" lon="3.80679">
        <ele>25.13</ele>
        <time>2016-07-11T16:58:23Z</time>
      </trkpt>
      <trkpt lat="50.68436" lon="3.80683">
        <ele>25.13</ele>
        <time>2016-07-11T16:58:25Z</time>
      </trkpt>
      <trkpt lat="50.68444" lon="3.80698">
        <ele>25.13</ele>
        <time>2016-07-11T16:58:36Z</time>
      </trkpt>
      <trkpt lat="50.68445" lon="3.807">
        <ele>25.13</ele>
        <time>2016-07-11T16:58:37Z</time>
      </trkpt>
      <trkpt lat="50.68449" lon="3.80709">
        <ele>25.13</ele>
        <time>2016-07-11T16:58:42Z</time>
      </trkpt>
      <trkpt lat="50.6845" lon="3.8071">
        <ele>25.13</ele>
        <time>2016-07-11T16:58:43Z</time>
      </trkpt>
      <trkpt lat="50.68451" lon="3.80711">
        <ele>25.13</ele>
        <time>2016-07-11T16:58:44Z</time>
      </trkpt>
      <trkpt lat="50.68452" lon="3.80712">
        <ele>25.13</ele>
        <time>2016-07-11T16:58:45Z</time>
      </trkpt>
      <trkpt lat="50.68453" lon="3.80714">
        <ele>25.13</ele>
        <time>2016-07-11T16:58:46Z</time>
      </trkpt>
      <trkpt lat="50.68463" lon="3.80731">
        <ele>25.61</ele>
        <time>2016-07-11T16:58:57Z</time>
      </trkpt>
      <trkpt lat="50.68464" lon="3.80733">
        <ele>25.61</ele>
        <time>2016-07-11T16:58:58Z</time>
      </trkpt>
      <trkpt lat="50.68474" lon="3.8076">
        <ele>25.61</ele>
        <time>2016-07-11T16:59:13Z</time>
      </trkpt>
      <trkpt lat="50.68485" lon="3.80783">
        <ele>25.61</ele>
        <time>2016-07-11T16:59:27Z</time>
      </trkpt>
      <trkpt lat="50.68485" lon="3.80786">
        <ele>25.61</ele>
        <time>2016-07-11T16:59:28Z</time>
      </trkpt>
      <trkpt lat="50.68487" lon="3.80815">
        <ele>25.61</ele>
        <time>2016-07-11T16:59:43Z</time>
      </trkpt>
      <trkpt lat="50.68487" lon="3.80818">
        <ele>25.61</ele>
        <time>2016-07-11T16:59:44Z</time>
      </trkpt>
      <trkpt lat="50.68482" lon="3.80843">
        <ele>26.09</ele>
        <time>2016-07-11T16:59:58Z</time>
      </trkpt>
      <trkpt lat="50.68479" lon="3.8086">
        <ele>24.65</ele>
        <time>2016-07-11T17:00:09Z</time>
      </trkpt>
      <trkpt lat="50.68475" lon="3.8088">
        <ele>24.65</ele>
        <time>2016-07-11T17:00:22Z</time>
      </trkpt>
      <trkpt lat="50.68475" lon="3.809">
        <ele>23.69</ele>
        <time>2016-07-11T17:00:34Z</time>
      </trkpt>
      <trkpt lat="50.68472" lon="3.80936">
        <ele>23.69</ele>
        <time>2016-07-11T17:00:48Z</time>
      </trkpt>
      <trkpt lat="50.68467" lon="3.80973">
        <ele>24.65</ele>
        <time>2016-07-11T17:01:04Z</time>
      </trkpt>
      <trkpt lat="50.68466" lon="3.8098">
        <ele>26.09</ele>
        <time>2016-07-11T17:01:07Z</time>
      </trkpt>
      <trkpt lat="50.68459" lon="3.81009">
        <ele>26.09</ele>
        <time>2016-07-11T17:01:22Z</time>
      </trkpt>
      <trkpt lat="50.68448" lon="3.81042">
        <ele>25.13</ele>
        <time>2016-07-11T17:01:39Z</time>
      </trkpt>
      <trkpt lat="50.68439" lon="3.81071">
        <ele>25.13</ele>
        <time>2016-07-11T17:01:56Z</time>
      </trkpt>
      <trkpt lat="50.68432" lon="3.81091">
        <ele>25.13</ele>
        <time>2016-07-11T17:02:09Z</time>
      </trkpt>
      <trkpt lat="50.68425" lon="3.81114">
        <ele>25.13</ele>
        <time>2016-07-11T17:02:22Z</time>
      </trkpt>
      <trkpt lat="50.68418" lon="3.81132">
        <ele>25.13</ele>
        <time>2016-07-11T17:02:32Z</time>
      </trkpt>
      <trkpt lat="50.68417" lon="3.81134">
        <ele>25.13</ele>
        <time>2016-07-11T17:02:33Z</time>
      </trkpt>
      <trkpt lat="50.6841" lon="3.81161">
        <ele>25.13</ele>
        <time>2016-07-11T17:02:45Z</time>
      </trkpt>
      <trkpt lat="50.684" lon="3.81199">
        <ele>23.21</ele>
        <time>2016-07-11T17:03:03Z</time>
      </trkpt>
      <trkpt lat="50.68386" lon="3.81236">
        <ele>23.21</ele>
        <time>2016-07-11T17:03:22Z</time>
      </trkpt>
      <trkpt lat="50.68373" lon="3.8127">
        <ele>23.21</ele>
        <time>2016-07-11T17:03:41Z</time>
      </trkpt>
      <trkpt lat="50.68372" lon="3.81288">
        <ele>23.69</ele>
        <time>2016-07-11T17:03:54Z</time>
      </trkpt>
      <trkpt lat="50.68375" lon="3.8129">
        <ele>25.13</ele>
        <time>2016-07-11T17:03:57Z</time>
      </trkpt>
      <trkpt lat="50.68386" lon="3.81298">
        <ele>25.13</ele>
        <time>2016-07-11T17:04:06Z</time>
      </trkpt>
      <trkpt lat="50.68403" lon="3.81314">
        <ele>25.61</ele>
        <time>2016-07-11T17:04:22Z</time>
      </trkpt>
      <trkpt lat="50.68404" lon="3.81315">
        <ele>25.61</ele>
        <time>2016-07-11T17:04:24Z</time>
      </trkpt>
      <trkpt lat="50.68419" lon="3.81329">
        <ele>27.05</ele>
        <time>2016-07-11T17:04:38Z</time>
      </trkpt>
      <trkpt lat="50.68434" lon="3.8134">
        <ele>27.53</ele>
        <time>2016-07-11T17:04:52Z</time>
      </trkpt>
      <trkpt lat="50.68454" lon="3.81355">
        <ele>27.53</ele>
        <time>2016-07-11T17:05:08Z</time>
      </trkpt>
      <trkpt lat="50.68469" lon="3.81374">
        <ele>28.02</ele>
        <time>2016-07-11T17:05:24Z</time>
      </trkpt>
      <trkpt lat="50.68477" lon="3.81381">
        <ele>28.02</ele>
        <time>2016-07-11T17:05:32Z</time>
      </trkpt>
      <trkpt lat="50.68482" lon="3.81386">
        <ele>28.02</ele>
        <time>2016-07-11T17:05:37Z</time>
      </trkpt>
      <trkpt lat="50.68486" lon="3.8139">
        <ele>28.5</ele>
        <time>2016-07-11T17:05:41Z</time>
      </trkpt>
      <trkpt lat="50.68487" lon="3.81396">
        <ele>28.5</ele>
        <time>2016-07-11T17:05:45Z</time>
      </trkpt>
      <trkpt lat="50.68487" lon="3.81407">
        <ele>28.5</ele>
        <time>2016-07-11T17:05:50Z</time>
      </trkpt>
      <trkpt lat="50.68483" lon="3.81413">
        <ele>28.5</ele>
        <time>2016-07-11T17:05:54Z</time>
      </trkpt>
      <trkpt lat="50.6848" lon="3.81422">
        <ele>27.53</ele>
        <time>2016-07-11T17:05:59Z</time>
      </trkpt>
      <trkpt lat="50.68471" lon="3.81436">
        <ele>26.57</ele>
        <time>2016-07-11T17:06:12Z</time>
      </trkpt>
      <trkpt lat="50.68466" lon="3.81444">
        <ele>26.09</ele>
        <time>2016-07-11T17:06:18Z</time>
      </trkpt>
      <trkpt lat="50.68448" lon="3.81443">
        <ele>26.09</ele>
        <time>2016-07-11T17:06:34Z</time>
      </trkpt>
      <trkpt lat="50.68447" lon="3.81446">
        <ele>26.09</ele>
        <time>2016-07-11T17:06:38Z</time>
      </trkpt>
      <trkpt lat="50.68436" lon="3.81463">
        <ele>27.05</ele>
        <time>2016-07-11T17:06:53Z</time>
      </trkpt>
      <trkpt lat="50.68434" lon="3.81464">
        <ele>27.05</ele>
        <time>2016-07-11T17:06:55Z</time>
      </trkpt>
      <trkpt lat="50.68429" lon="3.81467">
        <ele>26.09</ele>
        <time>2016-07-11T17:06:59Z</time>
      </trkpt>
      <trkpt lat="50.6842" lon="3.8148">
        <ele>26.09</ele>
        <time>2016-07-11T17:07:09Z</time>
      </trkpt>
      <trkpt lat="50.68407" lon="3.81491">
        <ele>25.13</ele>
        <time>2016-07-11T17:07:24Z</time>
      </trkpt>
      <trkpt lat="50.68397" lon="3.81505">
        <ele>23.69</ele>
        <time>2016-07-11T17:07:36Z</time>
      </trkpt>
      <trkpt lat="50.68389" lon="3.81513">
        <ele>23.69</ele>
        <time>2016-07-11T17:07:45Z</time>
      </trkpt>
      <trkpt lat="50.68382" lon="3.81519">
        <ele>22.73</ele>
        <time>2016-07-11T17:07:51Z</time>
      </trkpt>
      <trkpt lat="50.68379" lon="3.81524">
        <ele>22.25</ele>
        <time>2016-07-11T17:07:56Z</time>
      </trkpt>
      <trkpt lat="50.68379" lon="3.81528">
        <ele>22.25</ele>
        <time>2016-07-11T17:07:58Z</time>
      </trkpt>
      <trkpt lat="50.68389" lon="3.81546">
        <ele>21.77</ele>
        <time>2016-07-11T17:08:13Z</time>
      </trkpt>
      <trkpt lat="50.68393" lon="3.81565">
        <ele>21.77</ele>
        <time>2016-07-11T17:08:23Z</time>
      </trkpt>
      <trkpt lat="50.68395" lon="3.81573">
        <ele>22.73</ele>
        <time>2016-07-11T17:08:27Z</time>
      </trkpt>
      <trkpt lat="50.68398" lon="3.81598">
        <ele>22.73</ele>
        <time>2016-07-11T17:08:40Z</time>
      </trkpt>
      <trkpt lat="50.68398" lon="3.81616">
        <ele>22.73</ele>
        <time>2016-07-11T17:08:48Z</time>
      </trkpt>
      <trkpt lat="50.68401" lon="3.8164">
        <ele>23.21</ele>
        <time>2016-07-11T17:09:01Z</time>
      </trkpt>
      <trkpt lat="50.68402" lon="3.81649">
        <ele>23.21</ele>
        <time>2016-07-11T17:09:06Z</time>
      </trkpt>
      <trkpt lat="50.68402" lon="3.81666">
        <ele>23.69</ele>
        <time>2016-07-11T17:09:16Z</time>
      </trkpt>
      <trkpt lat="50.68396" lon="3.81695">
        <ele>22.25</ele>
        <time>2016-07-11T17:09:32Z</time>
      </trkpt>
      <trkpt lat="50.68394" lon="3.81713">
        <ele>21.77</ele>
        <time>2016-07-11T17:09:43Z</time>
      </trkpt>
      <trkpt lat="50.68394" lon="3.81748">
        <ele>21.77</ele>
        <time>2016-07-11T17:09:58Z</time>
      </trkpt>
      <trkpt lat="50.68399" lon="3.81772">
        <ele>21.77</ele>
        <time>2016-07-11T17:10:10Z</time>
      </trkpt>
      <trkpt lat="50.684" lon="3.8178">
        <ele>21.77</ele>
        <time>2016-07-11T17:10:14Z</time>
      </trkpt>
      <trkpt lat="50.68402" lon="3.81785">
        <ele>23.21</ele>
        <time>2016-07-11T17:10:17Z</time>
      </trkpt>
      <trkpt lat="50.68406" lon="3.8181">
        <ele>22.73</ele>
        <time>2016-07-11T17:10:30Z</time>
      </trkpt>
      <trkpt lat="50.68411" lon="3.8182">
        <ele>23.21</ele>
        <time>2016-07-11T17:10:36Z</time>
      </trkpt>
      <trkpt lat="50.68425" lon="3.81837">
        <ele>23.69</ele>
        <time>2016-07-11T17:10:49Z</time>
      </trkpt>
      <trkpt lat="50.68431" lon="3.81838">
        <ele>24.65</ele>
        <time>2016-07-11T17:10:55Z</time>
      </trkpt>
      <trkpt lat="50.68437" lon="3.8184">
        <ele>24.65</ele>
        <time>2016-07-11T17:11:01Z</time>
      </trkpt>
      <trkpt lat="50.68444" lon="3.81842">
        <ele>25.13</ele>
        <time>2016-07-11T17:11:06Z</time>
      </trkpt>
      <trkpt lat="50.68449" lon="3.81845">
        <ele>25.61</ele>
        <time>2016-07-11T17:11:10Z</time>
      </trkpt>
      <trkpt lat="50.68453" lon="3.81845">
        <ele>25.61</ele>
        <time>2016-07-11T17:11:13Z</time>
      </trkpt>
      <trkpt lat="50.6846" lon="3.81854">
        <ele>24.17</ele>
        <time>2016-07-11T17:11:21Z</time>
      </trkpt>
      <trkpt lat="50.68461" lon="3.81854">
        <ele>26.09</ele>
        <time>2016-07-11T17:11:23Z</time>
      </trkpt>
      <trkpt lat="50.68464" lon="3.81857">
        <ele>26.09</ele>
        <time>2016-07-11T17:11:27Z</time>
      </trkpt>
      <trkpt lat="50.6847" lon="3.81858">
        <ele>26.57</ele>
        <time>2016-07-11T17:11:41Z</time>
      </trkpt>
      <trkpt lat="50.68476" lon="3.81856">
        <ele>26.57</ele>
        <time>2016-07-11T17:11:54Z</time>
      </trkpt>
      <trkpt lat="50.68478" lon="3.81851">
        <ele>27.53</ele>
        <time>2016-07-11T17:12:20Z</time>
      </trkpt>
      <trkpt lat="50.68484" lon="3.81851">
        <ele>27.53</ele>
        <time>2016-07-11T17:12:51Z</time>
      </trkpt>
      <trkpt lat="50.68478" lon="3.81852">
        <ele>27.53</ele>
        <time>2016-07-11T17:13:25Z</time>
      </trkpt>
    </trkseg>
  </trk>
</gpx>